M I D A S
Marine Information and Data Acquisition System
Tripno 1741 of the Zeeleeuw from 2009-07-29 06:19:07 to 2009-07-29 17:33:58
Back to CruiseResearch ActivitiesStationsMapUnderway DataData graphs

EquipmentUnitsComment
TimeDGPSUTC
LatitudeDGPSDM.mWGS84
LongitudeDGPSDM.mWGS84
TemperatureSBE03/SBE38deg celciusITS90
ConductivitySBE21S/mITS90
SalinitySBE21 Practical Salinity Units
ChlorophylAChelsea fluorimeterg/lCalibrated in Aceton
Missing or incorrect values are displayed as -999
Sea surface data collected by the RV Zeeleeuw from 2009-07-29 06:05:33 to 2009-07-29 17:36:39
                                                                                    Next 1000 lines
Time Latitude Longitude Temperature Conductivity Salinity ChlorophylA
2009-07-29 06:05:43 51°13.663 2°55.954 22.0307 0.043545 0.225549 35.007503
2009-07-29 06:05:49 51°13.664 2°55.951 22.0516 0.044163 0.228797 35.007503
2009-07-29 06:05:53 51°13.664 2°55.948 22.0589 0.043236 0.223916 34.972679
2009-07-29 06:05:58 51°13.665 2°55.944 22.0709 0.043236 0.223916 34.972679
2009-07-29 06:06:04 51°13.667 2°55.938 22.0767 0.044266 0.22934 35.007503
2009-07-29 06:06:09 51°13.669 2°55.933 22.0687 0.044163 0.228797 34.972679
2009-07-29 06:06:15 51°13.671 2°55.926 22.0652 0.043648 0.226087 35.007503
2009-07-29 06:06:21 51°13.673 2°55.919 22.066 0.043854 0.227171 34.972679
2009-07-29 06:06:26 51°13.674 2°55.912 22.0753 0.044266 0.229343 34.972679
2009-07-29 06:06:32 51°13.677 2°55.904 22.0742 0.044266 0.229343 34.972679
2009-07-29 06:06:37 51°13.679 2°55.897 22.0761 0.044471 0.230428 34.972679
2009-07-29 06:06:42 51°13.681 2°55.89 22.0775 0.044163 0.228808 34.972679
2009-07-29 06:06:47 51°13.683 2°55.883 22.0848 0.04406 0.228263 34.972679
2009-07-29 06:06:52 51°13.685 2°55.875 22.0867 0.043854 0.227182 34.972679
2009-07-29 06:06:57 51°13.687 2°55.868 22.0882 0.044266 0.229355 34.972679
2009-07-29 06:07:02 51°13.689 2°55.86 22.0975 0.044266 0.229355 34.972679
2009-07-29 06:07:07 51°13.691 2°55.853 22.0943 0.04478 0.232071 34.972679
2009-07-29 06:07:12 51°13.693 2°55.846 22.0803 0.044677 0.231528 34.972679
2009-07-29 06:07:17 51°13.695 2°55.839 22.0873 0.04478 0.232071 34.972679
2009-07-29 06:07:22 51°13.698 2°55.832 22.0854 0.044574 0.230982 34.972679
2009-07-29 06:07:27 51°13.7 2°55.826 22.0814 0.043854 0.227186 34.972679
2009-07-29 06:07:32 51°13.702 2°55.819 22.0878 0.043854 0.227186 34.972679
2009-07-29 06:07:37 51°13.704 2°55.812 22.0922 0.043545 0.22556 34.937855
2009-07-29 06:07:42 51°13.706 2°55.805 22.0977 0.044163 0.228812 34.972679
2009-07-29 06:07:47 51°13.709 2°55.798 22.0965 0.044574 0.230982 34.972679
2009-07-29 06:07:52 51°13.711 2°55.792 22.097 0.044471 0.230443 34.937855
2009-07-29 06:07:57 51°13.714 2°55.785 22.0993 0.044883 0.232614 34.972679
2009-07-29 06:08:02 51°13.717 2°55.779 22.1002 0.044883 0.232614 34.972679
2009-07-29 06:08:07 51°13.72 2°55.773 22.096 0.045089 0.233703 34.972679
2009-07-29 06:08:12 51°13.723 2°55.767 22.0891 0.045089 0.233707 34.937855
2009-07-29 06:08:17 51°13.726 2°55.76 22.0799 0.044163 0.22882 34.937855
2009-07-29 06:08:22 51°13.729 2°55.754 22.0901 0.04406 0.228277 34.972679
2009-07-29 06:08:27 51°13.732 2°55.748 22.0825 0.044266 0.229358 34.937855
2009-07-29 06:08:32 51°13.735 2°55.742 22.0863 0.044266 0.229358 34.937855
2009-07-29 06:08:37 51°13.739 2°55.736 22.0927 0.044677 0.231532 34.972679
2009-07-29 06:08:42 51°13.742 2°55.73 22.0921 0.044471 0.230451 34.937855
2009-07-29 06:08:47 51°13.746 2°55.725 22.0907 0.044677 0.231536 34.937855
2009-07-29 06:08:52 51°13.75 2°55.719 22.093 0.044574 0.230997 34.937855
2009-07-29 06:08:57 51°13.754 2°55.713 22.0906 0.044266 0.229369 34.937855
2009-07-29 06:09:02 51°13.758 2°55.708 22.0909 0.044266 0.229369 34.937855
2009-07-29 06:09:07 51°13.762 2°55.702 22.0903 0.044266 0.229373 34.937855
2009-07-29 06:09:12 51°13.767 2°55.697 22.09 0.044163 0.228831 34.937855
2009-07-29 06:09:17 51°13.771 2°55.691 22.0917 0.044163 0.228827 34.937855
2009-07-29 06:09:22 51°13.776 2°55.686 22.0978 0.044266 0.229369 34.937855
2009-07-29 06:09:27 51°13.781 2°55.681 22.0926 0.044368 0.229916 34.937855
2009-07-29 06:09:32 51°13.786 2°55.676 22.0967 0.044368 0.229916 34.937855
2009-07-29 06:09:37 51°13.791 2°55.67 22.0994 0.044574 0.231004 34.937855
2009-07-29 06:09:42 51°13.796 2°55.665 22.0976 0.044368 0.229919 34.937855
2009-07-29 06:09:47 51°13.802 2°55.66 22.0888 0.043854 0.227208 34.937855
2009-07-29 06:09:52 51°13.807 2°55.656 22.092 0.04406 0.228289 34.937855
2009-07-29 06:09:57 51°13.813 2°55.651 22.1024 0.045192 0.234261 34.903031
2009-07-29 06:10:01 51°13.817 2°55.647 22.1021 0.045192 0.234261 34.903031
2009-07-29 06:10:07 51°13.824 2°55.643 22.0863 0.04406 0.228292 34.903031
2009-07-29 06:10:12 51°13.829 2°55.639 22.0894 0.04406 0.228289 34.903031
2009-07-29 06:10:17 51°13.835 2°55.636 22.1017 0.044883 0.232633 34.903031
2009-07-29 06:10:22 51°13.84 2°55.633 22.0979 0.044471 0.230458 34.903031
2009-07-29 06:10:27 51°13.846 2°55.63 22.1004 0.044883 0.232633 34.903031
2009-07-29 06:10:32 51°13.851 2°55.628 22.1008 0.044883 0.232633 34.903031
2009-07-29 06:10:37 51°13.857 2°55.627 22.1006 0.044471 0.230466 34.903031
2009-07-29 06:10:42 51°13.862 2°55.626 22.1045 0.044883 0.232633 34.903031
2009-07-29 06:10:47 51°13.868 2°55.625 22.1151 0.044883 0.232644 34.903031
2009-07-29 06:10:52 51°13.873 2°55.625 22.1032 0.044368 0.229934 34.903031
2009-07-29 06:10:57 51°13.878 2°55.625 22.1171 0.045295 0.234827 34.903031
2009-07-29 06:11:02 51°13.883 2°55.626 22.0968 0.045295 0.234827 34.903031
2009-07-29 06:11:07 51°13.887 2°55.627 22.1006 0.044266 0.229399 34.903031
2009-07-29 06:11:12 51°13.892 2°55.628 22.109 0.045192 0.234284 34.903031
2009-07-29 06:11:17 51°13.896 2°55.629 22.0946 0.045192 0.234288 34.903031
2009-07-29 06:11:22 51°13.9 2°55.63 22.1013 0.045398 0.235378 34.903031
2009-07-29 06:11:27 51°13.904 2°55.632 22.0895 0.044574 0.231031 34.903031
2009-07-29 06:11:32 51°13.908 2°55.634 22.086 0.044574 0.231031 34.903031
2009-07-29 06:11:37 51°13.911 2°55.636 22.107 0.044471 0.230484 34.903031
2009-07-29 06:11:42 51°13.915 2°55.639 22.1066 0.046015 0.238635 34.903031
2009-07-29 06:11:47 51°13.918 2°55.641 22.0845 0.044883 0.232663 34.903031
2009-07-29 06:11:52 51°13.921 2°55.644 22.0878 0.044986 0.233202 34.903031
2009-07-29 06:11:57 51°13.924 2°55.647 22.1093 0.045603 0.236465 34.903031
2009-07-29 06:12:01 51°13.926 2°55.649 22.1223 0.045603 0.236465 34.903031
2009-07-29 06:12:07 51°13.929 2°55.652 22.097 0.045706 0.237016 34.903031
2009-07-29 06:12:11 51°13.93 2°55.653 22.1265 0.045603 0.236472 34.868207
2009-07-29 06:12:16 51°13.932 2°55.655 22.1256 0.046015 0.23865 34.903031
2009-07-29 06:12:21 51°13.933 2°55.655 22.136 0.045912 0.238111 34.868207
2009-07-29 06:12:26 51°13.933 2°55.655 22.1379 0.046118 0.239198 34.868207
2009-07-29 06:12:31 51°13.934 2°55.654 22.1313 0.046118 0.239198 34.868207
2009-07-29 06:12:36 51°13.934 2°55.652 22.1202 0.045912 0.238111 34.868207
2009-07-29 06:12:41 51°13.934 2°55.649 22.0556 0.04478 0.232131 34.868207
2009-07-29 06:12:45 51°13.934 2°55.646 22.0067 0.043031 0.222895 34.868207
2009-07-29 06:12:50 51°13.934 2°55.641 21.9835 0.04231 0.219084 34.868207
2009-07-29 06:12:55 51°13.935 2°55.636 21.952 0.039635 0.205013 34.868207
2009-07-29 06:13:00 51°13.936 2°55.631 21.9475 0.039635 0.205013 34.868207
2009-07-29 06:13:05 51°13.938 2°55.625 21.9773 0.038811 0.200674 34.868207
2009-07-29 06:13:10 51°13.94 2°55.619 22.0267 0.03912 0.202276 34.868207
2009-07-29 06:13:15 51°13.942 2°55.613 22.0574 0.040561 0.209838 34.868207
2009-07-29 06:13:20 51°13.946 2°55.607 22.0684 0.043134 0.2234 34.868207
2009-07-29 06:13:25 51°13.95 2°55.601 22.0876 0.044471 0.230484 34.868207
2009-07-29 06:13:29 51°13.953 2°55.596 22.0916 0.044471 0.230484 34.868207
2009-07-29 06:13:34 51°13.958 2°55.59 22.0919 0.044986 0.233217 34.868207
2009-07-29 06:13:39 51°13.963 2°55.584 22.1024 0.045089 0.233779 34.868207
2009-07-29 06:13:44 51°13.969 2°55.578 22.0947 0.04478 0.232158 34.868207
2009-07-29 06:13:49 51°13.975 2°55.571 22.1027 0.0455 0.235968 34.868207
2009-07-29 06:13:53 51°13.981 2°55.565 22.1016 0.045295 0.234889 34.833383
2009-07-29 06:13:58 51°13.988 2°55.558 22.0995 0.045295 0.234889 34.833383
2009-07-29 06:14:03 51°13.995 2°55.551 22.0982 0.044471 0.230548 34.868207
2009-07-29 06:14:08 51°14.003 2°55.542 22.0985 0.044471 0.230544 34.868207
2009-07-29 06:14:13 51°14.011 2°55.534 22.0962 0.044883 0.232716 34.868207
2009-07-29 06:14:18 51°14.019 2°55.525 22.0939 0.043854 0.227285 34.868207
2009-07-29 06:14:22 51°14.026 2°55.518 22.0886 0.044163 0.228909 34.868207
2009-07-29 06:14:28 51°14.037 2°55.507 22.0901 0.044163 0.228909 34.868207
2009-07-29 06:14:33 51°14.047 2°55.497 22.0648 0.043339 0.224564 34.868207
2009-07-29 06:14:38 51°14.056 2°55.487 22.065 0.043854 0.227263 34.868207
2009-07-29 06:14:42 51°14.064 2°55.48 22.0651 0.043854 0.227263 34.868207
2009-07-29 06:14:48 51°14.076 2°55.468 22.0689 0.043648 0.226182 34.868207
2009-07-29 06:14:53 51°14.086 2°55.458 22.0755 0.043545 0.225637 34.833383
2009-07-29 06:14:58 51°14.097 2°55.448 22.0797 0.043545 0.225637 34.833383
2009-07-29 06:15:03 51°14.107 2°55.437 22.0833 0.043854 0.227263 34.833383
2009-07-29 06:15:08 51°14.118 2°55.427 22.08 0.044266 0.22944 34.833383
2009-07-29 06:15:13 51°14.128 2°55.416 22.0669 0.043545 0.225637 34.868207
2009-07-29 06:15:18 51°14.139 2°55.405 22.0859 0.044368 0.229975 34.833383
2009-07-29 06:15:23 51°14.149 2°55.394 22.1163 0.0455 0.235964 34.833383
2009-07-29 06:15:29 51°14.162 2°55.38 22.0873 0.0455 0.235964 34.833383
2009-07-29 06:15:33 51°14.171 2°55.37 22.0597 0.043339 0.224564 34.833383
2009-07-29 06:15:38 51°14.181 2°55.357 22.1014 0.044471 0.230529 34.833383
2009-07-29 06:15:43 51°14.191 2°55.345 22.0998 0.04406 0.228366 34.833383
2009-07-29 06:15:48 51°14.202 2°55.331 22.0927 0.04406 0.228366 34.833383
2009-07-29 06:15:53 51°14.212 2°55.318 22.1054 0.04406 0.22837 34.833383
2009-07-29 06:15:58 51°14.222 2°55.304 22.085 0.04406 0.22837 34.833383
2009-07-29 06:16:03 51°14.231 2°55.289 22.0771 0.043648 0.226201 34.833383
2009-07-29 06:16:08 51°14.24 2°55.273 22.059 0.04406 0.228374 34.833383
2009-07-29 06:16:13 51°14.25 2°55.257 22.0357 0.043134 0.223487 34.798559
2009-07-29 06:16:18 51°14.259 2°55.241 22.0455 0.043031 0.222931 34.798559
2009-07-29 06:16:22 51°14.266 2°55.228 22.0632 0.043648 0.226182 34.798559
2009-07-29 06:16:28 51°14.277 2°55.208 22.0566 0.043648 0.226182 34.798559
2009-07-29 06:16:33 51°14.286 2°55.192 22.0681 0.042722 0.221302 34.833383
2009-07-29 06:16:38 51°14.295 2°55.176 22.0771 0.042928 0.222378 34.833383
2009-07-29 06:16:44 51°14.305 2°55.156 22.0625 0.043031 0.22292 34.798559
2009-07-29 06:16:49 51°14.314 2°55.14 22.0645 0.043134 0.223462 34.798559
2009-07-29 06:16:54 51°14.323 2°55.123 22.0754 0.042722 0.221288 34.833383
2009-07-29 06:16:58 51°14.33 2°55.11 22.0961 0.042722 0.221288 34.833383
2009-07-29 06:17:03 51°14.339 2°55.093 22.0643 0.042413 0.219667 34.798559
2009-07-29 06:17:08 51°14.348 2°55.077 22.0523 0.042516 0.220202 34.798559
2009-07-29 06:17:14 51°14.359 2°55.056 22.0483 0.043031 0.222913 34.798559
2009-07-29 06:17:18 51°14.366 2°55.043 22.0294 0.041178 0.213157 34.798559
2009-07-29 06:17:23 51°14.376 2°55.027 21.989 0.040458 0.209359 34.833383
2009-07-29 06:17:29 51°14.389 2°55.009 22.0131 0.040458 0.209359 34.833383
2009-07-29 06:17:34 51°14.4 2°54.995 22.0228 0.041075 0.212592 34.798559
2009-07-29 06:17:38 51°14.41 2°54.985 22.0194 0.041796 0.216376 34.798559
2009-07-29 06:17:43 51°14.422 2°54.973 22.0356 0.041281 0.213666 34.798559
2009-07-29 06:17:48 51°14.435 2°54.962 22.0904 0.042825 0.221786 34.833383
2009-07-29 06:17:54 51°14.451 2°54.95 22.1148 0.043957 0.227776 34.798559
2009-07-29 06:17:58 51°14.462 2°54.941 22.1081 0.043957 0.227776 34.798559
2009-07-29 06:18:02 51°14.473 2°54.933 22.1044 0.043648 0.226175 34.798559
2009-07-29 06:18:08 51°14.489 2°54.919 22.0724 0.043854 0.227274 34.798559
2009-07-29 06:18:14 51°14.506 2°54.905 22.0332 0.042207 0.218589 34.798559
2009-07-29 06:18:18 51°14.517 2°54.896 22.0275 0.042002 0.217496 34.798559
2009-07-29 06:18:22 51°14.528 2°54.886 22.062 0.042104 0.218033 34.763735
2009-07-29 06:18:28 51°14.545 2°54.872 22.0645 0.042104 0.218033 34.763735
2009-07-29 06:18:33 51°14.559 2°54.861 22.0738 0.042104 0.218033 34.798559
2009-07-29 06:18:38 51°14.574 2°54.849 22.0737 0.042207 0.218574 34.763735
2009-07-29 06:18:43 51°14.588 2°54.837 22.065 0.041796 0.216404 34.798559
2009-07-29 06:18:49 51°14.605 2°54.822 22.0744 0.041075 0.212606 34.798559
2009-07-29 06:18:54 51°14.62 2°54.81 22.0773 0.041487 0.214768 34.763735
2009-07-29 06:18:58 51°14.631 2°54.8 22.0766 0.041487 0.214768 34.763735
2009-07-29 06:19:03 51°14.646 2°54.789 22.0885 0.042002 0.217468 34.798559
2009-07-29 06:19:09 51°14.663 2°54.774 22.0703 0.041384 0.214224 34.798559
2009-07-29 06:19:14 51°14.678 2°54.762 22.0847 0.040767 0.210968 34.798559
2009-07-29 06:19:18 51°14.689 2°54.752 22.0708 0.041487 0.214757 34.763735
2009-07-29 06:19:23 51°14.704 2°54.741 22.0807 0.042207 0.218546 34.763735
2009-07-29 06:19:28 51°14.718 2°54.729 22.0854 0.042207 0.218546 34.763735
2009-07-29 06:19:34 51°14.735 2°54.714 22.0848 0.041281 0.213683 34.763735
2009-07-29 06:19:38 51°14.747 2°54.704 22.0834 0.041384 0.214227 34.763735
2009-07-29 06:19:43 51°14.761 2°54.691 22.0777 0.040767 0.210979 34.763735
2009-07-29 06:19:49 51°14.778 2°54.676 22.0959 0.04159 0.215301 34.763735
2009-07-29 06:19:54 51°14.793 2°54.664 22.1002 0.042722 0.22127 34.763735
2009-07-29 06:19:58 51°14.804 2°54.654 22.0883 0.042722 0.22127 34.763735
2009-07-29 06:20:03 51°14.818 2°54.641 22.0706 0.042413 0.219642 34.763735
2009-07-29 06:20:09 51°14.835 2°54.626 22.0747 0.04231 0.219087 34.728911
2009-07-29 06:20:14 51°14.85 2°54.613 22.1097 0.042722 0.221256 34.763735
2009-07-29 06:20:18 51°14.861 2°54.603 22.1014 0.04159 0.215298 34.728911
2009-07-29 06:20:23 51°14.875 2°54.59 22.072 0.04231 0.219087 34.763735
2009-07-29 06:20:28 51°14.889 2°54.577 22.1077 0.04231 0.219087 34.763735
2009-07-29 06:20:33 51°14.904 2°54.564 22.0952 0.042516 0.220169 34.728911
2009-07-29 06:20:38 51°14.918 2°54.551 22.0694 0.041796 0.216379 34.763735
2009-07-29 06:20:43 51°14.932 2°54.538 22.0937 0.041487 0.214747 34.728911
2009-07-29 06:20:48 51°14.946 2°54.525 22.0981 0.042516 0.220162 34.728911
2009-07-29 06:20:53 51°14.96 2°54.511 22.0952 0.042104 0.217998 34.728911
2009-07-29 06:20:58 51°14.974 2°54.498 22.0979 0.042104 0.217998 34.728911
2009-07-29 06:21:04 51°14.991 2°54.482 22.0876 0.042207 0.218543 34.728911
2009-07-29 06:21:09 51°15.004 2°54.468 22.0641 0.041384 0.214213 34.694087
2009-07-29 06:21:14 51°15.018 2°54.453 22.0414 0.041281 0.213659 34.694087
2009-07-29 06:21:19 51°15.031 2°54.439 22.0565 0.042722 0.221238 34.728911
2009-07-29 06:21:23 51°15.042 2°54.429 22.0875 0.041796 0.216365 34.728911
2009-07-29 06:21:28 51°15.056 2°54.416 22.062 0.041796 0.216365 34.728911
2009-07-29 06:21:34 51°15.073 2°54.399 22.0812 0.041281 0.213659 34.728911
2009-07-29 06:21:39 51°15.087 2°54.387 22.0926 0.041487 0.214743 34.728911
2009-07-29 06:21:43 51°15.098 2°54.376 22.0993 0.041796 0.216369 34.728911
2009-07-29 06:21:48 51°15.112 2°54.363 22.0701 0.041796 0.216376 34.728911
2009-07-29 06:21:54 51°15.129 2°54.348 22.0797 0.041178 0.213136 34.728911
2009-07-29 06:21:59 51°15.143 2°54.335 22.0973 0.041178 0.213136 34.728911
2009-07-29 06:22:03 51°15.155 2°54.324 22.0772 0.042002 0.217457 34.694087
2009-07-29 06:22:07 51°15.166 2°54.314 22.0875 0.04231 0.219084 34.694087
2009-07-29 06:22:13 51°15.183 2°54.299 22.1066 0.04231 0.219091 34.694087
2009-07-29 06:22:19 51°15.2 2°54.283 22.0916 0.041384 0.214217 34.694087
2009-07-29 06:22:23 51°15.211 2°54.272 22.1109 0.041693 0.215835 34.694087
2009-07-29 06:22:28 51°15.225 2°54.259 22.1016 0.041693 0.215835 34.694087
2009-07-29 06:22:34 51°15.242 2°54.243 22.0792 0.042207 0.218535 34.694087
2009-07-29 06:22:39 51°15.255 2°54.229 22.0706 0.042207 0.218532 34.694087
2009-07-29 06:22:43 51°15.267 2°54.218 22.0872 0.041487 0.21474 34.659263
2009-07-29 06:22:48 51°15.28 2°54.204 22.0925 0.042002 0.217447 34.694087
2009-07-29 06:22:54 51°15.297 2°54.188 22.0724 0.041178 0.213119 34.694087
2009-07-29 06:22:59 51°15.311 2°54.175 22.0971 0.041178 0.213119 34.694087
2009-07-29 06:23:04 51°15.324 2°54.161 22.0992 0.041899 0.216902 34.694087
2009-07-29 06:23:09 51°15.339 2°54.148 22.0872 0.041693 0.215824 34.694087
2009-07-29 06:23:13 51°15.35 2°54.137 22.0637 0.041693 0.215817 34.659263
2009-07-29 06:23:18 51°15.363 2°54.123 22.0979 0.043031 0.222855 34.694087
2009-07-29 06:23:24 51°15.38 2°54.108 22.0677 0.042516 0.220141 34.659263
2009-07-29 06:23:28 51°15.391 2°54.097 22.0885 0.042516 0.220141 34.659263
2009-07-29 06:23:32 51°15.402 2°54.086 22.0935 0.041796 0.216351 34.694087
2009-07-29 06:23:38 51°15.419 2°54.07 22.0919 0.042722 0.221213 34.694087
2009-07-29 06:23:44 51°15.436 2°54.054 22.0934 0.04231 0.219055 34.694087
2009-07-29 06:23:48 51°15.447 2°54.044 22.0786 0.040149 0.207693 34.694087
2009-07-29 06:23:53 51°15.461 2°54.031 22.0678 0.041796 0.216341 34.694087
2009-07-29 06:23:58 51°15.475 2°54.018 22.0918 0.041796 0.216341 34.694087
2009-07-29 06:24:04 51°15.492 2°54.003 22.0795 0.041899 0.216881 34.659263
2009-07-29 06:24:08 51°15.504 2°53.993 22.0921 0.041796 0.216344 34.659263
2009-07-29 06:24:13 51°15.518 2°53.981 22.083 0.042104 0.21797 34.659263
2009-07-29 06:24:18 51°15.532 2°53.968 22.1074 0.042928 0.222299 34.624439
2009-07-29 06:24:24 51°15.549 2°53.954 22.1192 0.043339 0.224465 34.624439
2009-07-29 06:24:28 51°15.561 2°53.944 22.0928 0.043339 0.224465 34.624439
2009-07-29 06:24:32 51°15.572 2°53.934 22.1146 0.042413 0.219596 34.659263
2009-07-29 06:24:38 51°15.59 2°53.919 22.086 0.042104 0.217963 34.659263
2009-07-29 06:24:44 51°15.607 2°53.904 22.0919 0.041178 0.213081 34.659263
2009-07-29 06:24:48 51°15.618 2°53.894 22.0894 0.041693 0.215775 34.659263
2009-07-29 06:24:53 51°15.633 2°53.882 22.1084 0.042516 0.220098 34.624439
2009-07-29 06:24:59 51°15.65 2°53.868 22.0847 0.042516 0.220098 34.624439
2009-07-29 06:25:04 51°15.664 2°53.856 22.1164 0.041693 0.215769 34.659263
2009-07-29 06:25:08 51°15.676 2°53.846 22.1042 0.04159 0.215239 34.659263
2009-07-29 06:25:12 51°15.687 2°53.836 22.0888 0.042619 0.22065 34.624439
2009-07-29 06:25:18 51°15.704 2°53.821 22.0931 0.04159 0.215245 34.659263
2009-07-29 06:25:24 51°15.722 2°53.807 22.0859 0.041178 0.213074 34.624439
2009-07-29 06:25:28 51°15.733 2°53.797 22.1037 0.041178 0.213074 34.624439
2009-07-29 06:25:32 51°15.745 2°53.787 22.1005 0.042413 0.219561 34.624439
2009-07-29 06:25:38 51°15.762 2°53.773 22.1022 0.040973 0.21199 34.659263
2009-07-29 06:25:44 51°15.78 2°53.759 22.1173 0.041178 0.213064 34.659263
2009-07-29 06:25:48 51°15.791 2°53.75 22.1184 0.041487 0.214688 34.659263
2009-07-29 06:25:53 51°15.806 2°53.738 22.1011 0.041281 0.213607 34.624439
2009-07-29 06:25:58 51°15.82 2°53.726 22.0949 0.041281 0.213607 34.624439
2009-07-29 06:26:04 51°15.838 2°53.712 22.1108 0.041178 0.213067 34.624439
2009-07-29 06:26:08 51°15.849 2°53.702 22.1016 0.042002 0.21739 34.624439
2009-07-29 06:26:13 51°15.864 2°53.691 22.1079 0.041384 0.214144 34.624439
2009-07-29 06:26:18 51°15.879 2°53.679 22.0782 0.04159 0.215218 34.624439
2009-07-29 06:26:23 51°15.893 2°53.667 22.1162 0.041487 0.214677 34.624439
2009-07-29 06:26:28 51°15.908 2°53.656 22.1144 0.041487 0.214677 34.624439
2009-07-29 06:26:33 51°15.922 2°53.644 22.0913 0.041796 0.216295 34.624439
2009-07-29 06:26:38 51°15.937 2°53.632 22.0995 0.041281 0.213587 34.624439
2009-07-29 06:26:44 51°15.954 2°53.618 22.0927 0.042413 0.219536 34.589615
2009-07-29 06:26:48 51°15.966 2°53.609 22.1147 0.04231 0.218995 34.624439
2009-07-29 06:26:53 51°15.98 2°53.597 22.1024 0.042002 0.217373 34.589615
2009-07-29 06:26:59 51°15.998 2°53.583 22.1039 0.042002 0.217373 34.589615
2009-07-29 06:27:04 51°16.012 2°53.571 22.0998 0.04231 0.218991 34.624439
2009-07-29 06:27:08 51°16.024 2°53.562 22.1192 0.042413 0.219525 34.589615
2009-07-29 06:27:13 51°16.038 2°53.55 22.1193 0.042207 0.218443 34.624439
2009-07-29 06:27:18 51°16.053 2°53.539 22.0993 0.041487 0.214653 34.554791
2009-07-29 06:27:24 51°16.07 2°53.524 22.0967 0.042413 0.219514 34.589615
2009-07-29 06:27:28 51°16.082 2°53.515 22.1195 0.042413 0.219514 34.589615
2009-07-29 06:27:32 51°16.094 2°53.505 22.1149 0.042413 0.219518 34.624439
2009-07-29 06:27:38 51°16.111 2°53.491 22.0852 0.041796 0.216274 34.589615
2009-07-29 06:27:44 51°16.128 2°53.477 22.1135 0.042516 0.220055 34.589615
2009-07-29 06:27:48 51°16.14 2°53.467 22.1081 0.042516 0.220055 34.589615
2009-07-29 06:27:53 51°16.155 2°53.456 22.1145 0.041899 0.216808 34.589615
2009-07-29 06:27:58 51°16.169 2°53.444 22.0861 0.041899 0.216808 34.589615
2009-07-29 06:28:04 51°16.187 2°53.43 22.0786 0.040767 0.21086 34.589615
2009-07-29 06:28:08 51°16.198 2°53.421 22.0961 0.040767 0.21086 34.589615
2009-07-29 06:28:13 51°16.213 2°53.409 22.1013 0.042104 0.217882 34.589615
2009-07-29 06:28:18 51°16.228 2°53.398 22.1269 0.042825 0.221686 34.589615
2009-07-29 06:28:23 51°16.243 2°53.387 22.1271 0.043134 0.22332 34.589615
2009-07-29 06:28:28 51°16.257 2°53.375 22.1252 0.043134 0.22332 34.589615
2009-07-29 06:28:33 51°16.272 2°53.364 22.1205 0.042722 0.221148 34.589615
2009-07-29 06:28:38 51°16.287 2°53.352 22.1027 0.041796 0.216278 34.589615
2009-07-29 06:28:44 51°16.304 2°53.337 22.0898 0.042207 0.218433 34.589615
2009-07-29 06:28:49 51°16.319 2°53.326 22.1216 0.042207 0.218429 34.589615
2009-07-29 06:28:53 51°16.331 2°53.317 22.1171 0.042413 0.219511 34.554791
2009-07-29 06:28:58 51°16.345 2°53.305 22.1211 0.042413 0.219511 34.554791
2009-07-29 06:29:04 51°16.363 2°53.292 22.1209 0.042928 0.222212 34.554791
2009-07-29 06:29:08 51°16.375 2°53.283 22.1145 0.04231 0.218959 34.589615
2009-07-29 06:29:13 51°16.389 2°53.271 22.1049 0.043134 0.223291 34.589615
2009-07-29 06:29:19 51°16.407 2°53.258 22.1201 0.042722 0.221127 34.589615
2009-07-29 06:29:24 51°16.422 2°53.247 22.1329 0.042516 0.220045 34.554791
2009-07-29 06:29:28 51°16.434 2°53.238 22.1239 0.042516 0.220045 34.554791
2009-07-29 06:29:32 51°16.446 2°53.229 22.107 0.042104 0.217871 34.554791
2009-07-29 06:29:38 51°16.464 2°53.215 22.1221 0.042516 0.22003 34.554791
2009-07-29 06:29:44 51°16.481 2°53.201 22.1355 0.042413 0.219497 34.554791
2009-07-29 06:29:48 51°16.493 2°53.192 22.1096 0.041178 0.213009 34.554791
2009-07-29 06:29:52 51°16.505 2°53.182 22.1362 0.042928 0.222198 34.554791
2009-07-29 06:29:58 51°16.522 2°53.168 22.1458 0.042928 0.222198 34.554791
2009-07-29 06:30:04 51°16.54 2°53.153 22.1284 0.043751 0.226541 34.554791
2009-07-29 06:30:08 51°16.551 2°53.144 22.1111 0.043545 0.225446 34.519967
2009-07-29 06:30:13 51°16.566 2°53.132 22.0973 0.043339 0.22436 34.554791
2009-07-29 06:30:19 51°16.583 2°53.117 22.1144 0.043031 0.222736 34.554791
2009-07-29 06:30:24 51°16.597 2°53.106 22.1275 0.043442 0.224901 34.554791
2009-07-29 06:30:28 51°16.609 2°53.096 22.1178 0.043442 0.224901 34.554791
2009-07-29 06:30:33 51°16.623 2°53.084 22.1178 0.042104 0.21786 34.554791
2009-07-29 06:30:38 51°16.638 2°53.073 22.1246 0.043339 0.22436 34.519967
2009-07-29 06:30:44 51°16.656 2°53.059 22.1118 0.042516 0.22003 34.519967
2009-07-29 06:30:48 51°16.667 2°53.049 22.1327 0.042207 0.218405 34.519967
2009-07-29 06:30:53 51°16.682 2°53.037 22.137 0.042825 0.22165 34.554791
2009-07-29 06:30:58 51°16.696 2°53.025 22.1181 0.042825 0.22165 34.554791
2009-07-29 06:31:04 51°16.713 2°53.011 22.1271 0.041899 0.216783 34.554791
2009-07-29 06:31:08 51°16.725 2°53.001 22.1306 0.042207 0.218405 34.554791
2009-07-29 06:31:12 51°16.737 2°52.992 22.1465 0.042825 0.221653 34.554791
2009-07-29 06:31:18 51°16.754 2°52.977 22.1292 0.041796 0.216246 34.519967
2009-07-29 06:31:23 51°16.768 2°52.966 22.1074 0.042928 0.222202 34.554791
2009-07-29 06:31:28 51°16.783 2°52.953 22.1396 0.042928 0.222202 34.554791
2009-07-29 06:31:33 51°16.797 2°52.942 22.1008 0.042002 0.217338 34.554791
2009-07-29 06:31:39 51°16.815 2°52.927 22.1529 0.041487 0.214615 34.519967
2009-07-29 06:31:44 51°16.829 2°52.915 22.151 0.042928 0.222191 34.519967
2009-07-29 06:31:48 51°16.841 2°52.905 22.1273 0.042104 0.217868 34.554791
2009-07-29 06:31:53 51°16.855 2°52.893 22.1433 0.041796 0.216239 34.519967
2009-07-29 06:31:59 51°16.872 2°52.878 22.1241 0.041796 0.216239 34.519967
2009-07-29 06:32:04 51°16.886 2°52.866 22.1285 0.042207 0.218401 34.519967
2009-07-29 06:32:08 51°16.898 2°52.856 22.1487 0.041899 0.216772 34.519967
2009-07-29 06:32:13 51°16.912 2°52.844 22.1291 0.041281 0.213521 34.519967
2009-07-29 06:32:18 51°16.927 2°52.832 22.1492 0.041899 0.216755 34.519967
2009-07-29 06:32:24 51°16.944 2°52.817 22.15 0.043134 0.223266 34.519967
2009-07-29 06:32:28 51°16.956 2°52.808 22.1294 0.043134 0.223266 34.519967
2009-07-29 06:32:33 51°16.971 2°52.796 22.1113 0.042207 0.218398 34.519967
2009-07-29 06:32:38 51°16.985 2°52.784 22.1131 0.041693 0.215688 34.519967
2009-07-29 06:32:44 51°17.003 2°52.769 22.1239 0.042619 0.220557 34.485143
2009-07-29 06:32:48 51°17.015 2°52.76 22.1239 0.04231 0.218931 34.519967
2009-07-29 06:32:53 51°17.03 2°52.749 22.1421 0.042516 0.22002 34.519967
2009-07-29 06:32:58 51°17.045 2°52.737 22.1492 0.042516 0.22002 34.519967
2009-07-29 06:33:03 51°17.06 2°52.725 22.1563 0.042619 0.220582 34.485143
2009-07-29 06:33:08 51°17.074 2°52.713 22.1382 0.042104 0.217878 34.519967
2009-07-29 06:33:13 51°17.089 2°52.701 22.1331 0.042104 0.21786 34.519967
2009-07-29 06:33:19 51°17.107 2°52.687 22.1392 0.043236 0.223804 34.485143
2009-07-29 06:33:23 51°17.119 2°52.677 22.1491 0.043648 0.225959 34.519967
2009-07-29 06:33:28 51°17.134 2°52.665 22.1428 0.043648 0.225959 34.519967
2009-07-29 06:33:33 51°17.149 2°52.654 22.1501 0.042928 0.222162 34.519967
2009-07-29 06:33:39 51°17.167 2°52.64 22.1505 0.043545 0.225417 34.485143
2009-07-29 06:33:44 51°17.182 2°52.629 22.1381 0.043134 0.223244 34.485143
2009-07-29 06:33:48 51°17.194 2°52.619 22.1381 0.041693 0.215664 34.485143
2009-07-29 06:33:53 51°17.209 2°52.608 22.1296 0.04231 0.218906 34.519967
2009-07-29 06:33:58 51°17.223 2°52.595 22.084 0.04231 0.218906 34.519967
2009-07-29 06:34:04 51°17.241 2°52.581 22.0826 0.040664 0.210255 34.485143
2009-07-29 06:34:08 51°17.253 2°52.572 22.107 0.042928 0.222115 34.485143
2009-07-29 06:34:12 51°17.266 2°52.564 22.139 0.040355 0.208611 34.519967
2009-07-29 06:34:18 51°17.285 2°52.555 22.1276 0.041899 0.216692 34.485143
2009-07-29 06:34:24 51°17.304 2°52.545 22.1519 0.042722 0.221037 34.450318
2009-07-29 06:34:28 51°17.317 2°52.541 22.1175 0.042722 0.221037 34.450318
2009-07-29 06:34:32 51°17.33 2°52.535 22.1216 0.04231 0.218892 34.485143
2009-07-29 06:34:38 51°17.35 2°52.53 22.1301 0.040767 0.210751 34.485143
2009-07-29 06:34:44 51°17.37 2°52.524 22.1331 0.043134 0.223208 34.485143
2009-07-29 06:34:48 51°17.383 2°52.524 22.1252 0.041487 0.214566 34.485143
2009-07-29 06:34:53 51°17.4 2°52.523 22.1201 0.043134 0.223223 34.450318
2009-07-29 06:34:58 51°17.417 2°52.523 22.1429 0.043134 0.223223 34.450318
2009-07-29 06:35:04 51°17.437 2°52.523 22.0883 0.04231 0.218913 34.485143
2009-07-29 06:35:08 51°17.451 2°52.524 22.1326 0.039943 0.206485 34.450318
2009-07-29 06:35:12 51°17.464 2°52.527 22.068 0.039532 0.20428 34.485143
2009-07-29 06:35:18 51°17.485 2°52.53 22.1017 0.039223 0.202636 34.485143
2009-07-29 06:35:24 51°17.504 2°52.539 22.088 0.039017 0.201573 34.485143
2009-07-29 06:35:28 51°17.517 2°52.546 22.1145 0.039017 0.201573 34.485143
2009-07-29 06:35:32 51°17.529 2°52.554 22.1523 0.043545 0.225483 34.450318
2009-07-29 06:35:38 51°17.547 2°52.569 22.124 0.042825 0.221704 34.485143
2009-07-29 06:35:43 51°17.563 2°52.581 22.1555 0.04159 0.215214 34.485143
2009-07-29 06:35:48 51°17.577 2°52.595 22.1014 0.042413 0.219546 34.450318
2009-07-29 06:35:53 51°17.593 2°52.608 22.1498 0.042722 0.221166 34.485143
2009-07-29 06:35:59 51°17.61 2°52.626 22.1201 0.042722 0.221166 34.485143
2009-07-29 06:36:04 51°17.625 2°52.641 22.1248 0.042619 0.220632 34.450318
2009-07-29 06:36:08 51°17.636 2°52.653 22.1342 0.041384 0.214137 34.450318
2009-07-29 06:36:13 51°17.651 2°52.668 22.1467 0.042413 0.219578 34.450318
2009-07-29 06:36:19 51°17.668 2°52.687 22.1313 0.040973 0.211994 34.450318
2009-07-29 06:36:24 51°17.683 2°52.703 22.1092 0.043236 0.223916 34.450318
2009-07-29 06:36:28 51°17.694 2°52.716 22.1461 0.043236 0.223916 34.450318
2009-07-29 06:36:32 51°17.704 2°52.73 22.1098 0.041487 0.214695 34.450318
2009-07-29 06:36:38 51°17.721 2°52.75 22.1349 0.04231 0.219023 34.450318
2009-07-29 06:36:44 51°17.737 2°52.772 22.1381 0.04159 0.215218 34.450318
2009-07-29 06:36:48 51°17.748 2°52.786 22.1454 0.041693 0.215762 34.450318
2009-07-29 06:36:52 51°17.758 2°52.801 22.1484 0.043031 0.222812 34.450318
2009-07-29 06:36:58 51°17.774 2°52.823 22.1532 0.043031 0.222812 34.450318
2009-07-29 06:37:04 51°17.789 2°52.846 22.1559 0.042413 0.219557 34.415494
2009-07-29 06:37:08 51°17.8 2°52.86 22.1499 0.042516 0.220102 34.450318
2009-07-29 06:37:12 51°17.81 2°52.876 22.1434 0.042002 0.217376 34.450318
2009-07-29 06:37:18 51°17.826 2°52.898 22.1399 0.042104 0.217938 34.450318
2009-07-29 06:37:24 51°17.841 2°52.921 22.1349 0.041281 0.213607 34.450318
2009-07-29 06:37:28 51°17.852 2°52.936 22.127 0.041281 0.213607 34.450318
2009-07-29 06:37:33 51°17.864 2°52.955 22.1402 0.041796 0.216302 34.450318
2009-07-29 06:37:39 51°17.88 2°52.979 22.1487 0.041384 0.214137 34.450318
2009-07-29 06:37:43 51°17.89 2°52.994 22.155 0.041796 0.21632 34.450318
2009-07-29 06:37:48 51°17.902 2°53.013 22.1414 0.041178 0.21306 34.415494
2009-07-29 06:37:53 51°17.915 2°53.033 22.1541 0.041899 0.216839 34.415494
2009-07-29 06:37:59 51°17.93 2°53.056 22.1382 0.041899 0.216839 34.415494
2009-07-29 06:38:04 51°17.943 2°53.076 22.1488 0.041899 0.216885 34.450318
2009-07-29 06:38:08 51°17.953 2°53.092 22.1632 0.041281 0.213621 34.450318
2009-07-29 06:38:12 51°17.963 2°53.107 22.1536 0.041075 0.212541 34.415494
2009-07-29 06:38:18 51°17.978 2°53.13 22.1429 0.041281 0.213611 34.415494
2009-07-29 06:38:24 51°17.994 2°53.153 22.1583 0.041796 0.216313 34.415494
2009-07-29 06:38:28 51°18.004 2°53.169 22.1565 0.041796 0.216313 34.415494
2009-07-29 06:38:32 51°18.014 2°53.184 22.1532 0.042002 0.21739 34.415494
2009-07-29 06:38:38 51°18.03 2°53.207 22.1449 0.040973 0.211977 34.415494
2009-07-29 06:38:44 51°18.045 2°53.23 22.1487 0.041281 0.213587 34.38067
2009-07-29 06:38:48 51°18.055 2°53.246 22.1476 0.041384 0.214141 34.415494
2009-07-29 06:38:53 51°18.068 2°53.265 22.1712 0.042002 0.217397 34.415494
2009-07-29 06:38:59 51°18.083 2°53.288 22.1574 0.042002 0.217397 34.415494
2009-07-29 06:39:04 51°18.096 2°53.307 22.1666 0.042104 0.217959 34.415494
2009-07-29 06:39:08 51°18.106 2°53.323 22.1608 0.042104 0.217959 34.415494
2009-07-29 06:39:13 51°18.118 2°53.342 22.1545 0.042104 0.217973 34.450318
2009-07-29 06:39:18 51°18.131 2°53.361 22.1552 0.041075 0.212565 34.415494
2009-07-29 06:39:24 51°18.147 2°53.384 22.1342 0.042413 0.219603 34.415494
2009-07-29 06:39:28 51°18.157 2°53.4 22.1588 0.042413 0.219603 34.415494
2009-07-29 06:39:32 51°18.167 2°53.415 22.1489 0.041796 0.216365 34.415494
2009-07-29 06:39:38 51°18.182 2°53.438 22.1739 0.041487 0.21475 34.415494
2009-07-29 06:39:44 51°18.197 2°53.462 22.1661 0.041796 0.216376 34.415494
2009-07-29 06:39:48 51°18.208 2°53.477 22.1678 0.042413 0.219614 34.38067
2009-07-29 06:39:52 51°18.218 2°53.492 22.1695 0.041693 0.215821 34.38067
2009-07-29 06:39:58 51°18.233 2°53.515 22.162 0.041693 0.215821 34.38067
2009-07-29 06:40:04 51°18.249 2°53.538 22.165 0.041796 0.216365 34.415494
2009-07-29 06:40:08 51°18.259 2°53.553 22.1741 0.041487 0.214754 34.38067
2009-07-29 06:40:13 51°18.271 2°53.572 22.1489 0.04159 0.215301 34.38067
2009-07-29 06:40:19 51°18.287 2°53.595 22.1483 0.041899 0.21692 34.38067
2009-07-29 06:40:24 51°18.3 2°53.614 22.1717 0.043545 0.225596 34.38067
2009-07-29 06:40:28 51°18.31 2°53.629 22.1793 0.043545 0.225596 34.38067
2009-07-29 06:40:33 51°18.322 2°53.649 22.1516 0.042207 0.21855 34.415494
2009-07-29 06:40:39 51°18.337 2°53.673 22.1746 0.041693 0.215824 34.38067
2009-07-29 06:40:44 51°18.349 2°53.692 22.1771 0.043236 0.223971 34.38067
2009-07-29 06:40:48 51°18.359 2°53.708 22.1855 0.042104 0.218026 34.38067
2009-07-29 06:40:54 51°18.374 2°53.731 22.1503 0.041178 0.213139 34.38067
2009-07-29 06:40:58 51°18.384 2°53.747 22.1666 0.041178 0.213139 34.38067
2009-07-29 06:41:04 51°18.399 2°53.77 22.1678 0.041075 0.21262 34.38067
2009-07-29 06:41:08 51°18.409 2°53.786 22.183 0.041693 0.215866 34.38067
2009-07-29 06:41:13 51°18.422 2°53.806 22.1678 0.043134 0.223458 34.345846
2009-07-29 06:41:19 51°18.436 2°53.83 22.183 0.042928 0.222375 34.345846
2009-07-29 06:41:24 51°18.449 2°53.849 22.1728 0.041796 0.21639 34.38067
2009-07-29 06:41:28 51°18.459 2°53.865 22.161 0.041796 0.21639 34.38067
2009-07-29 06:41:33 51°18.472 2°53.884 22.1818 0.041487 0.214768 34.38067
2009-07-29 06:41:39 51°18.487 2°53.907 22.1721 0.042104 0.218012 34.38067
2009-07-29 06:41:44 51°18.499 2°53.927 22.1846 0.04087 0.211522 34.38067
2009-07-29 06:41:48 51°18.509 2°53.942 22.1645 0.042104 0.218002 34.38067
2009-07-29 06:41:53 51°18.522 2°53.961 22.187 0.041796 0.216379 34.38067
2009-07-29 06:41:58 51°18.534 2°53.981 22.1553 0.041796 0.216379 34.38067
2009-07-29 06:42:04 51°18.549 2°54.004 22.1688 0.04159 0.215315 34.345846
2009-07-29 06:42:08 51°18.559 2°54.02 22.1825 0.042002 0.217475 34.38067
2009-07-29 06:42:13 51°18.572 2°54.04 22.1851 0.042207 0.218592 34.345846
2009-07-29 06:42:18 51°18.584 2°54.06 22.179 0.042002 0.21752 34.345846
2009-07-29 06:42:24 51°18.599 2°54.084 22.1846 0.041693 0.215891 34.345846
2009-07-29 06:42:28 51°18.608 2°54.099 22.1759 0.041693 0.215891 34.345846
2009-07-29 06:42:32 51°18.618 2°54.115 22.1635 0.041693 0.215887 34.38067
2009-07-29 06:42:38 51°18.633 2°54.138 22.1579 0.041178 0.213163 34.345846
2009-07-29 06:42:43 51°18.645 2°54.158 22.1921 0.043031 0.222938 34.345846
2009-07-29 06:42:48 51°18.657 2°54.178 22.1963 0.041487 0.214841 34.311022
2009-07-29 06:42:53 51°18.67 2°54.198 22.1575 0.040767 0.21103 34.311022
2009-07-29 06:42:59 51°18.685 2°54.221 22.2034 0.040767 0.21103 34.311022
2009-07-29 06:43:04 51°18.697 2°54.24 22.1754 0.042413 0.219696 34.345846
2009-07-29 06:43:08 51°18.708 2°54.256 22.1674 0.041693 0.215908 34.345846
2009-07-29 06:43:14 51°18.722 2°54.279 22.1772 0.041178 0.213181 34.345846
2009-07-29 06:43:19 51°18.735 2°54.298 22.1853 0.041796 0.216425 34.345846
2009-07-29 06:43:24 51°18.747 2°54.318 22.1938 0.04087 0.211577 34.311022
2009-07-29 06:43:28 51°18.757 2°54.334 22.1855 0.04087 0.211577 34.311022
2009-07-29 06:43:33 51°18.77 2°54.353 22.0316 0.042413 0.219675 34.311022
2009-07-29 06:43:38 51°18.782 2°54.373 20.5904 0.103028 0.55049 27.833748
2009-07-29 06:43:43 51°18.794 2°54.392 20.0215 0.095721 0.510305 26.336314
2009-07-29 06:43:48 51°18.807 2°54.411 19.7864 3.965565 27.43875 27.973045
2009-07-29 06:43:53 51°18.819 2°54.431 19.3882 4.359172 30.208781 22.78426
2009-07-29 06:43:58 51°18.832 2°54.45 19.2504 4.359172 30.208781 22.78426
2009-07-29 06:44:04 51°18.847 2°54.473 19.186 4.782826 33.403099 17.28206
2009-07-29 06:44:08 51°18.857 2°54.488 19.098 4.84163 33.952833 15.610505
2009-07-29 06:44:12 51°18.867 2°54.504 19.0271 4.859301 34.479366 14.670256
2009-07-29 06:44:18 51°18.882 2°54.527 18.9897 4.808711 34.464653 14.287191
2009-07-29 06:44:24 51°18.897 2°54.55 18.9489 4.771837 34.506556 14.008599
2009-07-29 06:44:28 51°18.907 2°54.565 18.9159 4.771837 34.506556 14.008599
2009-07-29 06:44:32 51°18.918 2°54.581 18.8859 4.717412 34.357982 13.869303
2009-07-29 06:44:38 51°18.933 2°54.603 18.8332 4.722921 34.630015 13.730007
2009-07-29 06:44:43 51°18.945 2°54.623 18.8293 4.688855 34.499858 13.660358
2009-07-29 06:44:48 51°18.958 2°54.642 18.8245 4.682106 34.553751 13.695182
2009-07-29 06:44:52 51°18.968 2°54.658 18.8695 4.647626 34.359323 13.799655
2009-07-29 06:44:58 51°18.983 2°54.681 18.8231 4.647626 34.359323 13.799655
2009-07-29 06:45:03 51°18.995 2°54.7 18.7993 4.663933 34.554186 13.938951
2009-07-29 06:45:08 51°19.007 2°54.72 18.7808 4.649082 34.487982 14.113071
2009-07-29 06:45:13 51°19.02 2°54.74 18.7962 4.63579 34.421606 14.287191
2009-07-29 06:45:18 51°19.032 2°54.759 18.7773 4.618655 34.311442 14.461312
2009-07-29 06:45:24 51°19.046 2°54.783 18.7793 4.637141 34.485598 14.670256
2009-07-29 06:45:29 51°19.059 2°54.804 18.7678 4.637141 34.485598 14.670256
2009-07-29 06:45:33 51°19.068 2°54.819 18.7698 4.642126 34.543494 14.844376
2009-07-29 06:45:38 51°19.081 2°54.839 18.7622 4.637661 34.523893 15.053321
2009-07-29 06:45:43 51°19.093 2°54.859 18.7478 4.632468 34.497558 15.192617
2009-07-29 06:45:48 51°19.106 2°54.878 18.7596 4.625199 34.445374 15.366737
2009-07-29 06:45:53 51°19.118 2°54.898 18.7666 4.626653 34.46339 15.506033
2009-07-29 06:45:59 51°19.133 2°54.921 18.7477 4.626653 34.46339 15.506033
2009-07-29 06:46:04 51°19.146 2°54.941 18.7393 4.61928 34.413587 15.610505
2009-07-29 06:46:08 51°19.155 2°54.956 18.7422 4.614191 34.380235 15.81945
2009-07-29 06:46:13 51°19.167 2°54.977 18.748 4.623746 34.467219 15.854274
2009-07-29 06:46:18 51°19.18 2°54.997 18.7284 4.624577 34.481359 15.99357
2009-07-29 06:46:24 51°19.195 2°55.02 18.7577 4.613984 34.395469 16.063218
2009-07-29 06:46:29 51°19.207 2°55.04 18.7368 4.613984 34.395469 16.063218
2009-07-29 06:46:33 51°19.217 2°55.056 18.7246 4.615023 34.407411 16.132866
2009-07-29 06:46:38 51°19.23 2°55.076 18.7226 4.620215 34.459305 16.272162
2009-07-29 06:46:44 51°19.245 2°55.101 18.7291 4.620008 34.46477 16.306987
2009-07-29 06:46:49 51°19.257 2°55.12 18.7154 4.615854 34.430043 16.411459
2009-07-29 06:46:53 51°19.267 2°55.136 18.7227 4.6117 34.397282 16.481107
2009-07-29 06:46:58 51°19.28 2°55.155 18.7237 4.6117 34.397282 16.481107
2009-07-29 06:47:03 51°19.292 2°55.174 18.7141 4.620008 34.469354 16.585579
2009-07-29 06:47:09 51°19.308 2°55.197 18.7189 4.611181 34.400785 16.620403
2009-07-29 06:47:14 51°19.32 2°55.217 18.7232 4.618346 34.466594 16.690051
2009-07-29 06:47:18 51°19.33 2°55.232 18.7189 4.61575 34.448809 16.759699
2009-07-29 06:47:24 51°19.345 2°55.255 18.7341 4.609208 34.39671 16.829347
2009-07-29 06:47:28 51°19.355 2°55.271 18.7212 4.609208 34.39671 16.829347
2009-07-29 06:47:33 51°19.367 2°55.29 18.717 4.619073 34.481851 16.933819
2009-07-29 06:47:38 51°19.379 2°55.31 18.7254 4.615854 34.456229 16.933819
2009-07-29 06:47:43 51°19.392 2°55.329 18.7196 4.621981 34.507493 17.038292
2009-07-29 06:47:49 51°19.407 2°55.352 18.7184 4.6198 34.489245 17.10794
2009-07-29 06:47:53 51°19.416 2°55.368 18.7081 4.620216 34.49272 17.177588
2009-07-29 06:47:58 51°19.429 2°55.387 18.7052 4.620216 34.49272 17.177588
2009-07-29 06:48:04 51°19.444 2°55.41 18.7081 4.619177 34.484031 17.212412
2009-07-29 06:48:09 51°19.457 2°55.429 18.7141 4.616581 34.464276 17.28206
2009-07-29 06:48:13 51°19.467 2°55.444 18.7094 4.618554 34.482097 17.351708
2009-07-29 06:48:18 51°19.479 2°55.463 18.7131 4.620735 34.501002 17.386532
2009-07-29 06:48:24 51°19.494 2°55.486 18.7239 4.614089 34.449321 17.491004
2009-07-29 06:48:28 51°19.504 2°55.501 18.7185 4.614089 34.449321 17.491004
2009-07-29 06:48:33 51°19.517 2°55.52 18.7203 4.615958 34.46824 17.560652
2009-07-29 06:48:38 51°19.53 2°55.539 18.7189 4.604327 34.373542 17.665125
2009-07-29 06:48:44 51°19.545 2°55.562 18.7324 4.61035 34.42459 17.734773
2009-07-29 06:48:48 51°19.554 2°55.577 18.7253 4.615854 34.469994 17.804421
2009-07-29 06:48:53 51°19.567 2°55.597 18.7179 4.611804 34.434135 17.839245
2009-07-29 06:48:58 51°19.579 2°55.616 18.7253 4.611804 34.434135 17.839245
2009-07-29 06:49:04 51°19.594 2°55.639 18.7325 4.61492 34.458894 17.874069
2009-07-29 06:49:09 51°19.607 2°55.658 18.7366 4.608585 34.405891 18.013365
2009-07-29 06:49:13 51°19.617 2°55.674 18.7336 4.603185 34.359411 18.048189
2009-07-29 06:49:18 51°19.629 2°55.694 18.7402 4.607754 34.395669 18.187485
2009-07-29 06:49:23 51°19.641 2°55.714 18.738 4.60765 34.3948 18.291958
2009-07-29 06:49:29 51°19.656 2°55.737 18.7361 4.60765 34.3948 18.291958
2009-07-29 06:49:33 51°19.666 2°55.753 18.7378 4.607339 34.392194 18.257134
2009-07-29 06:49:38 51°19.678 2°55.773 18.7367 4.593735 34.275822 18.361606
2009-07-29 06:49:44 51°19.692 2°55.797 18.7379 4.596643 34.297522 18.431254
2009-07-29 06:49:48 51°19.702 2°55.813 18.7464 4.597473 34.303163 18.535726
2009-07-29 06:49:53 51°19.714 2°55.833 18.7455 4.610142 34.407797 18.57055
2009-07-29 06:49:58 51°19.727 2°55.852 18.7431 4.610142 34.407797 18.57055
2009-07-29 06:50:04 51°19.742 2°55.876 18.7462 4.606508 34.376746 18.640198
2009-07-29 06:50:08 51°19.752 2°55.891 18.7482 4.604535 34.359593 18.675022
2009-07-29 06:50:13 51°19.764 2°55.911 18.7511 4.591347 34.248692 18.74467
2009-07-29 06:50:18 51°19.777 2°55.93 18.7512 4.599239 34.313355 18.779494
2009-07-29 06:50:24 51°19.792 2°55.953 18.7578 4.603912 34.350465 18.918791
2009-07-29 06:50:29 51°19.805 2°55.972 18.761 4.603912 34.350465 18.918791
2009-07-29 06:50:33 51°19.815 2°55.987 18.7578 4.605469 34.362835 18.953615
2009-07-29 06:50:38 51°19.827 2°56.007 18.7618 4.600277 34.318775 18.953615
2009-07-29 06:50:43 51°19.841 2°56.026 18.7641 4.603392 34.343512 19.023263
2009-07-29 06:50:48 51°19.853 2°56.045 18.7653 4.601108 34.322457 19.092911
2009-07-29 06:50:53 51°19.866 2°56.064 18.7669 4.596435 34.281446 19.162559
2009-07-29 06:50:58 51°19.878 2°56.084 18.7725 4.596435 34.281446 19.162559
2009-07-29 06:51:04 51°19.893 2°56.106 18.7742 4.58387 34.175171 19.197383
2009-07-29 06:51:08 51°19.903 2°56.122 18.7677 4.579301 34.135067 19.301855
2009-07-29 06:51:13 51°19.915 2°56.141 18.7753 4.477133 33.282303 19.336679
2009-07-29 06:51:18 51°19.928 2°56.161 18.778 4.601627 34.318318 19.336679
2009-07-29 06:51:24 51°19.943 2°56.184 18.7789 4.605158 34.345867 19.441151
2009-07-29 06:51:29 51°19.955 2°56.203 18.7818 4.605158 34.345867 19.441151
2009-07-29 06:51:33 51°19.965 2°56.219 18.779 4.603288 34.326985 19.475975
2009-07-29 06:51:38 51°19.977 2°56.238 18.7854 4.601731 34.312014 19.615272
2009-07-29 06:51:43 51°19.99 2°56.258 18.7852 4.60173 34.311362 19.650096
2009-07-29 06:51:49 51°20.005 2°56.28 18.7897 4.601315 34.306588 19.615272
2009-07-29 06:51:53 51°20.015 2°56.296 18.7932 4.600277 34.295959 19.719744
2009-07-29 06:51:58 51°20.027 2°56.315 18.7942 4.600277 34.295959 19.719744
2009-07-29 06:52:03 51°20.04 2°56.334 18.796 4.601523 34.304414 19.754568
2009-07-29 06:52:08 51°20.052 2°56.353 18.7942 4.600069 34.290967 19.824216
2009-07-29 06:52:13 51°20.065 2°56.373 18.7973 4.59955 34.285328 19.85904
2009-07-29 06:52:18 51°20.077 2°56.392 18.8036 4.599342 34.281641 19.963512
2009-07-29 06:52:23 51°20.089 2°56.411 18.8019 4.595292 34.245219 19.998336
2009-07-29 06:52:28 51°20.102 2°56.43 18.8016 4.595292 34.245219 19.998336
2009-07-29 06:52:33 51°20.114 2°56.449 18.8038 4.59685 34.256274 19.998336
2009-07-29 06:52:38 51°20.127 2°56.468 18.8065 4.593423 34.225714 19.998336
2009-07-29 06:52:43 51°20.139 2°56.487 18.807 4.59498 34.238067 20.03316
2009-07-29 06:52:49 51°20.154 2°56.51 18.8078 4.59363 34.224199 20.102808
2009-07-29 06:52:53 51°20.164 2°56.526 18.8103 4.595707 34.240236 20.102808
2009-07-29 06:52:57 51°20.174 2°56.541 18.814 4.595707 34.240236 20.102808
2009-07-29 06:53:03 51°20.189 2°56.564 18.8199 4.594773 34.231785 20.137632
2009-07-29 06:53:09 51°20.204 2°56.587 18.8128 4.59228 34.209035 20.242105
2009-07-29 06:53:13 51°20.213 2°56.604 18.8175 4.594461 34.225936 20.276929
2009-07-29 06:53:18 51°20.225 2°56.623 18.8181 4.592384 34.206655 20.485873
2009-07-29 06:53:23 51°20.237 2°56.643 18.8192 4.59093 34.193875 20.485873
2009-07-29 06:53:28 51°20.25 2°56.663 18.8246 4.59093 34.193875 20.485873
2009-07-29 06:53:33 51°20.262 2°56.683 18.821 4.592488 34.204277 20.799289
2009-07-29 06:53:38 51°20.274 2°56.703 18.821 4.5874 34.159878 20.764465
2009-07-29 06:53:44 51°20.288 2°56.727 18.8216 4.590515 34.18457 20.346577
2009-07-29 06:53:49 51°20.3 2°56.747 18.8236 4.588438 34.165948 20.381401
2009-07-29 06:53:53 51°20.31 2°56.762 18.8248 4.590307 34.180892 20.416225
2009-07-29 06:53:58 51°20.322 2°56.783 18.8275 4.590307 34.180892 20.416225
2009-07-29 06:54:03 51°20.334 2°56.803 18.8259 4.58283 34.116587 20.346577
2009-07-29 06:54:09 51°20.348 2°56.827 18.8299 4.583973 34.125465 20.451049
2009-07-29 06:54:13 51°20.358 2°56.842 18.8305 4.587503 34.154912 20.485873
2009-07-29 06:54:18 51°20.37 2°56.862 18.8323 4.57795 34.074597 20.520697
2009-07-29 06:54:22 51°20.38 2°56.878 18.8355 4.580234 34.092351 20.520697
2009-07-29 06:54:28 51°20.395 2°56.902 18.8407 4.580234 34.092351 20.520697
2009-07-29 06:54:33 51°20.407 2°56.922 18.8339 4.582623 34.110973 20.555521
2009-07-29 06:54:38 51°20.419 2°56.942 18.8365 4.586672 34.144097 20.625169
2009-07-29 06:54:43 51°20.431 2°56.962 18.8376 4.583869 34.119422 20.625169
2009-07-29 06:54:48 51°20.443 2°56.983 18.8374 4.579715 34.082851 20.729641
2009-07-29 06:54:53 51°20.455 2°57.002 18.8402 4.581688 34.098006 20.729641
2009-07-29 06:54:58 51°20.467 2°57.022 18.8389 4.581688 34.098006 20.729641
2009-07-29 06:55:03 51°20.48 2°57.042 18.8418 4.573588 34.027911 20.729641
2009-07-29 06:55:09 51°20.494 2°57.065 18.8424 4.576496 34.051497 20.729641
2009-07-29 06:55:13 51°20.504 2°57.081 18.844 4.576704 34.052582 20.799289
2009-07-29 06:55:17 51°20.514 2°57.097 18.8463 4.579611 34.07617 20.764465
2009-07-29 06:55:23 51°20.529 2°57.12 18.8494 4.582934 34.103222 20.903762
2009-07-29 06:55:29 51°20.544 2°57.144 18.8477 4.582934 34.103222 20.903762
2009-07-29 06:55:33 51°20.553 2°57.159 18.8498 4.577638 34.058434 20.799289
2009-07-29 06:55:37 51°20.563 2°57.175 18.85 4.575146 34.037019 20.834113
2009-07-29 06:55:43 51°20.578 2°57.198 18.8507 4.575561 34.03919 20.868938
2009-07-29 06:55:48 51°20.59 2°57.218 18.8531 4.575977 34.041361 20.903762
2009-07-29 06:55:53 51°20.603 2°57.237 18.8604 4.577742 34.05478 20.938586
2009-07-29 06:55:58 51°20.616 2°57.255 18.8571 4.577742 34.05478 20.938586
2009-07-29 06:56:03 51°20.628 2°57.275 18.8609 4.573588 34.018236 20.97341
2009-07-29 06:56:08 51°20.641 2°57.293 18.8599 4.569746 33.986229 21.043058
2009-07-29 06:56:13 51°20.653 2°57.313 18.8611 4.573692 34.017812 21.077882
2009-07-29 06:56:18 51°20.666 2°57.331 18.8623 4.572238 34.005056 21.14753
2009-07-29 06:56:23 51°20.678 2°57.351 18.86 4.569954 33.983451 21.077882
2009-07-29 06:56:29 51°20.693 2°57.374 18.8634 4.569954 33.983451 21.077882
2009-07-29 06:56:33 51°20.703 2°57.389 18.8636 4.566112 33.949523 21.112706
2009-07-29 06:56:38 51°20.716 2°57.408 18.8648 4.570265 33.982182 21.182354
2009-07-29 06:56:43 51°20.727 2°57.428 18.8698 4.566112 33.94695 21.14753
2009-07-29 06:56:48 51°20.74 2°57.447 18.867 4.569538 33.974197 21.182354
2009-07-29 06:56:53 51°20.752 2°57.467 18.8702 4.565593 33.940698 21.217178
2009-07-29 06:56:58 51°20.765 2°57.487 18.8705 4.565593 33.940698 21.217178
2009-07-29 06:57:04 51°20.779 2°57.511 18.8732 4.573069 34.002311 21.286826
2009-07-29 06:57:08 51°20.789 2°57.526 18.8726 4.570577 33.980269 21.32165
2009-07-29 06:57:13 51°20.801 2°57.546 18.873 4.569746 33.972708 21.391298
2009-07-29 06:57:18 51°20.813 2°57.566 18.8734 4.566527 33.943977 21.391298
2009-07-29 06:57:23 51°20.825 2°57.586 18.8753 4.563516 33.917624 21.356474
2009-07-29 06:57:28 51°20.838 2°57.605 18.874 4.563516 33.917624 21.356474
2009-07-29 06:57:33 51°20.85 2°57.625 18.8759 4.564969 33.929083 21.426122
2009-07-29 06:57:38 51°20.863 2°57.643 18.8771 4.565385 33.931898 21.391298
2009-07-29 06:57:43 51°20.875 2°57.662 18.8797 4.562789 33.909647 21.426122
2009-07-29 06:57:49 51°20.891 2°57.683 18.8781 4.560608 33.890215 21.530595
2009-07-29 06:57:53 51°20.902 2°57.698 18.8792 4.5631 33.910313 21.530595
2009-07-29 06:57:57 51°20.913 2°57.711 18.8835 4.5631 33.910313 21.530595
2009-07-29 06:58:03 51°20.929 2°57.732 18.8816 4.560089 33.884611 21.600243
2009-07-29 06:58:08 51°20.943 2°57.749 18.8812 4.559881 33.881599 21.565419
2009-07-29 06:58:13 51°20.957 2°57.765 18.8854 4.5604 33.885278 21.565419
2009-07-29 06:58:18 51°20.971 2°57.782 18.8853 4.557285 33.858076 21.600243
2009-07-29 06:58:23 51°20.985 2°57.798 18.8863 4.554793 33.837343 21.600243
2009-07-29 06:58:28 51°20.999 2°57.814 18.8903 4.554793 33.837343 21.600243
2009-07-29 06:58:33 51°21.013 2°57.83 18.8893 4.554897 33.836925 21.669891
2009-07-29 06:58:38 51°21.027 2°57.846 18.8875 4.556455 33.849242 21.669891
2009-07-29 06:58:43 51°21.041 2°57.862 18.8878 4.554066 33.828734 21.635067
2009-07-29 06:58:49 51°21.058 2°57.881 18.8869 4.554689 33.832635 21.704715
2009-07-29 06:58:53 51°21.07 2°57.894 18.8918 4.556558 33.846901 21.704715
2009-07-29 06:58:58 51°21.084 2°57.91 18.8872 4.556558 33.846901 21.704715
2009-07-29 06:59:03 51°21.098 2°57.927 18.8887 4.555832 33.840215 21.739539
2009-07-29 06:59:08 51°21.112 2°57.942 18.8917 4.551678 33.804389 21.739539
2009-07-29 06:59:13 51°21.126 2°57.959 18.8926 4.552613 33.812161 21.774363
2009-07-29 06:59:18 51°21.14 2°57.975 18.8929 4.553028 33.815615 21.739539
2009-07-29 06:59:23 51°21.154 2°57.991 18.8914 4.546383 33.759714 21.774363
2009-07-29 06:59:29 51°21.171 2°58.01 18.8972 4.546383 33.759714 21.774363
2009-07-29 06:59:33 51°21.183 2°58.023 18.8897 4.549186 33.783025 21.774363
2009-07-29 06:59:38 51°21.197 2°58.04 18.8922 4.544929 33.74635 21.739539
2009-07-29 06:59:43 51°21.211 2°58.056 18.8919 4.545967 33.754983 21.774363
2009-07-29 06:59:48 51°21.225 2°58.072 18.8909 4.546279 33.756934 21.809187
2009-07-29 06:59:53 51°21.239 2°58.089 18.8934 4.543164 33.730398 21.774363
2009-07-29 06:59:58 51°21.253 2°58.105 18.8892 4.543164 33.730398 21.774363
2009-07-29 07:00:03 51°21.267 2°58.122 18.8876 4.54576 33.750701 21.774363
2009-07-29 07:00:08 51°21.281 2°58.138 18.8877 4.540153 33.70473 21.809187
2009-07-29 07:00:13 51°21.294 2°58.155 18.8869 4.539841 33.702141 21.844011
2009-07-29 07:00:18 51°21.308 2°58.171 18.8937 4.551782 33.801413 21.878835
2009-07-29 07:00:23 51°21.322 2°58.188 18.8885 4.551055 33.795369 21.844011
2009-07-29 07:00:28 51°21.336 2°58.204 18.8894 4.551055 33.795369 21.844011
2009-07-29 07:00:33 51°21.35 2°58.221 18.8881 4.550121 33.788238 21.878835
2009-07-29 07:00:38 51°21.364 2°58.237 18.8883 4.549082 33.780244 21.809187
2009-07-29 07:00:42 51°21.375 2°58.25 18.889 4.548252 33.773976 21.844011
2009-07-29 07:00:49 51°21.395 2°58.273 18.8888 4.54794 33.771386 21.809187
2009-07-29 07:00:53 51°21.406 2°58.287 18.8903 4.547421 33.767069 21.844011
2009-07-29 07:00:58 51°21.42 2°58.303 18.886 4.547421 33.767069 21.844011
2009-07-29 07:01:03 51°21.433 2°58.32 18.8882 4.546279 33.756934 21.809187
2009-07-29 07:01:08 51°21.447 2°58.336 18.8864 4.545656 33.752393 21.844011
2009-07-29 07:01:13 51°21.461 2°58.353 18.89 4.544514 33.742897 21.809187
2009-07-29 07:01:18 51°21.475 2°58.369 18.8891 4.543787 33.737493 21.844011
2009-07-29 07:01:23 51°21.489 2°58.386 18.887 4.543268 33.732538 21.809187
2009-07-29 07:01:28 51°21.503 2°58.402 18.8868 4.543268 33.732538 21.809187
2009-07-29 07:01:33 51°21.517 2°58.419 18.89 4.542229 33.724545 21.844011
2009-07-29 07:01:38 51°21.531 2°58.436 18.8888 4.541295 33.717415 21.774363
2009-07-29 07:01:43 51°21.544 2°58.452 18.8885 4.540672 33.712236 21.774363
2009-07-29 07:01:49 51°21.561 2°58.473 18.8876 4.540153 33.70792 21.774363
2009-07-29 07:01:53 51°21.572 2°58.486 18.8885 4.53953 33.702741 21.809187
2009-07-29 07:01:58 51°21.586 2°58.503 18.8891 4.53953 33.702741 21.809187
2009-07-29 07:02:04 51°21.602 2°58.524 18.8897 4.538699 33.695836 21.809187
2009-07-29 07:02:08 51°21.613 2°58.537 18.8902 4.538076 33.69002 21.774363
2009-07-29 07:02:13 51°21.627 2°58.554 18.89 4.537142 33.682253 21.774363
2009-07-29 07:02:18 51°21.641 2°58.571 18.8899 4.536415 33.676212 21.739539
2009-07-29 07:02:24 51°21.657 2°58.592 18.8893 4.535792 33.671034 21.669891
2009-07-29 07:02:28 51°21.668 2°58.605 18.8907 4.535792 33.671034 21.669891
2009-07-29 07:02:33 51°21.682 2°58.622 18.8904 4.535169 33.666494 21.704715
2009-07-29 07:02:38 51°21.696 2°58.639 18.8892 4.534754 33.662405 21.739539
2009-07-29 07:02:44 51°21.713 2°58.66 18.8889 4.534234 33.657453 21.704715
2009-07-29 07:02:49 51°21.727 2°58.677 18.8875 4.533819 33.654002 21.669891
2009-07-29 07:02:53 51°21.738 2°58.69 18.8889 4.533092 33.647962 21.704715
2009-07-29 07:02:58 51°21.751 2°58.708 18.8898 4.533092 33.647962 21.704715
2009-07-29 07:03:03 51°21.765 2°58.725 18.8892 4.532677 33.645147 21.669891
2009-07-29 07:03:08 51°21.779 2°58.742 18.8903 4.532158 33.640196 21.600243
2009-07-29 07:03:13 51°21.793 2°58.759 18.8888 4.531639 33.635882 21.635067
2009-07-29 07:03:18 51°21.807 2°58.776 18.8871 4.531016 33.630706 21.635067
2009-07-29 07:03:24 51°21.823 2°58.797 18.8853 4.5306 33.627891 21.600243
2009-07-29 07:03:28 51°21.834 2°58.81 18.8874 4.5306 33.627891 21.600243
2009-07-29 07:03:33 51°21.848 2°58.827 18.8886 4.530393 33.625529 21.600243
2009-07-29 07:03:38 51°21.862 2°58.844 18.8879 4.529977 33.622078 21.530595
2009-07-29 07:03:43 51°21.876 2°58.861 18.8879 4.529458 33.618401 21.565419
2009-07-29 07:03:48 51°21.89 2°58.878 18.8869 4.529043 33.61495 21.600243
2009-07-29 07:03:53 51°21.904 2°58.894 18.8859 4.528524 33.611272 21.635067
2009-07-29 07:03:58 51°21.918 2°58.911 18.8843 4.528524 33.611272 21.635067
2009-07-29 07:04:03 51°21.932 2°58.928 18.8916 4.528109 33.607821 21.565419
2009-07-29 07:04:08 51°21.945 2°58.945 18.8875 4.527901 33.606096 21.495771
2009-07-29 07:04:13 51°21.96 2°58.962 18.8887 4.527486 33.602645 21.530595
2009-07-29 07:04:18 51°21.973 2°58.979 18.8923 4.526966 33.598332 21.565419
2009-07-29 07:04:24 51°21.99 2°58.999 18.8934 4.526447 33.594018 21.530595
2009-07-29 07:04:29 51°22.004 2°59.017 18.8883 4.526447 33.594018 21.530595
2009-07-29 07:04:33 51°22.015 2°59.03 18.8927 4.525928 33.590341 21.530595
2009-07-29 07:04:38 51°22.029 2°59.047 18.8877 4.52572 33.58798 21.495771
2009-07-29 07:04:44 51°22.045 2°59.067 18.8886 4.525409 33.585392 21.530595
2009-07-29 07:04:49 51°22.059 2°59.084 18.8873 4.525201 33.583031 21.460946
2009-07-29 07:04:53 51°22.07 2°59.098 18.8855 4.524994 33.580035 21.495771
2009-07-29 07:04:58 51°22.084 2°59.115 18.8875 4.524994 33.580035 21.495771
2009-07-29 07:05:03 51°22.098 2°59.132 18.8878 4.524682 33.577447 21.495771
2009-07-29 07:05:09 51°22.114 2°59.152 18.8877 4.524371 33.57486 21.460946
2009-07-29 07:05:13 51°22.125 2°59.166 18.8883 4.523955 33.572045 21.460946
2009-07-29 07:05:18 51°22.139 2°59.183 18.8869 4.52354 33.56923 21.460946
2009-07-29 07:05:23 51°22.153 2°59.2 18.8865 4.523125 33.56705 21.495771
2009-07-29 07:05:29 51°22.169 2°59.221 18.8902 4.523125 33.56705 21.495771
2009-07-29 07:05:33 51°22.18 2°59.235 18.888 4.522709 33.5636 21.460946
2009-07-29 07:05:37 51°22.191 2°59.249 18.8869 4.522502 33.561875 21.426122
2009-07-29 07:05:43 51°22.207 2°59.269 18.8871 4.522086 33.55779 21.426122
2009-07-29 07:05:48 51°22.221 2°59.286 18.8882 4.521879 33.5567 21.460946
2009-07-29 07:05:53 51°22.235 2°59.303 18.8927 4.521567 33.553477 21.426122
2009-07-29 07:05:58 51°22.249 2°59.32 18.888 4.521567 33.553477 21.426122
2009-07-29 07:06:03 51°22.262 2°59.337 18.8924 4.521256 33.55089 21.460946
2009-07-29 07:06:08 51°22.276 2°59.354 18.8904 4.521048 33.549165 21.426122
2009-07-29 07:06:13 51°22.29 2°59.371 18.8922 4.520737 33.547213 21.460946
2009-07-29 07:06:18 51°22.304 2°59.388 18.8914 4.520529 33.545488 21.460946
2009-07-29 07:06:24 51°22.32 2°59.408 18.8861 4.520425 33.54399 21.426122
2009-07-29 07:06:28 51°22.332 2°59.422 18.8937 4.520425 33.54399 21.426122
2009-07-29 07:06:33 51°22.345 2°59.439 18.8901 4.520321 33.542493 21.391298
2009-07-29 07:06:38 51°22.359 2°59.456 18.89 4.520218 33.540361 21.391298
2009-07-29 07:06:44 51°22.376 2°59.476 18.8922 4.520114 33.539499 21.391298
2009-07-29 07:06:49 51°22.39 2°59.493 18.8916 4.519802 33.536912 21.391298
2009-07-29 07:06:53 51°22.401 2°59.506 18.8911 4.519491 33.534959 21.391298
2009-07-29 07:06:58 51°22.415 2°59.523 18.8954 4.519491 33.534959 21.391298
2009-07-29 07:07:04 51°22.432 2°59.543 18.894 4.519283 33.5326 21.391298
2009-07-29 07:07:09 51°22.446 2°59.56 18.8918 4.519179 33.531737 21.391298
2009-07-29 07:07:13 51°22.457 2°59.574 18.8916 4.518972 33.529378 21.426122
2009-07-29 07:07:18 51°22.471 2°59.591 18.8889 4.518868 33.528516 21.426122
2009-07-29 07:07:23 51°22.485 2°59.608 18.8927 4.518764 33.527019 21.426122
2009-07-29 07:07:29 51°22.501 2°59.628 18.8949 4.518764 33.527019 21.426122
2009-07-29 07:07:33 51°22.512 2°59.642 18.8979 4.51866 33.526157 21.32165
2009-07-29 07:07:38 51°22.526 2°59.659 18.8942 4.518556 33.52466 21.32165
2009-07-29 07:07:43 51°22.54 2°59.677 18.8988 4.518245 33.522708 21.391298
2009-07-29 07:07:48 51°22.554 2°59.694 18.8965 4.518037 33.521617 21.426122
2009-07-29 07:07:53 51°22.568 2°59.711 18.8992 4.517933 33.520755 21.356474
2009-07-29 07:07:57 51°22.579 2°59.725 18.8975 4.517933 33.520755 21.356474
2009-07-29 07:08:03 51°22.596 2°59.745 18.9032 4.51783 33.519893 21.356474
2009-07-29 07:08:09 51°22.612 2°59.766 18.8958 4.517933 33.519486 21.356474
2009-07-29 07:08:13 51°22.623 2°59.78 18.898 4.518037 33.519714 21.32165
2009-07-29 07:08:17 51°22.635 2°59.794 18.8971 4.517933 33.518218 21.32165
2009-07-29 07:08:23 51°22.652 2°59.814 18.8931 4.517933 33.517584 21.32165
2009-07-29 07:08:28 51°22.665 2°59.832 18.8968 4.517933 33.517584 21.32165
2009-07-29 07:08:33 51°22.68 2°59.849 18.8958 4.518141 33.517405 21.32165
2009-07-29 07:08:38 51°22.694 2°59.866 18.8962 4.518245 33.517633 21.356474
2009-07-29 07:08:43 51°22.708 2°59.883 18.8987 4.517933 33.515681 21.391298
2009-07-29 07:08:48 51°22.722 2°59.9 18.8995 4.517622 33.513729 21.32165
2009-07-29 07:08:53 51°22.736 2°59.918 18.9044 4.517414 33.512638 21.356474
2009-07-29 07:08:58 51°22.75 2°59.935 18.8968 4.517414 33.512638 21.356474
2009-07-29 07:09:03 51°22.764 2°59.953 18.8927 4.51731 33.51241 21.391298
2009-07-29 07:09:08 51°22.779 2°59.97 18.8927 4.517103 33.510686 21.391298
2009-07-29 07:09:13 51°22.793 2°59.987 18.8929 4.516999 33.509824 21.391298
2009-07-29 07:09:18 51°22.807 3°0.005 18.8885 4.516895 33.507694 21.356474
2009-07-29 07:09:24 51°22.824 3°0.026 18.8894 4.517103 33.50815 21.391298
2009-07-29 07:09:28 51°22.835 3°0.04 18.8854 4.517103 33.50815 21.391298
2009-07-29 07:09:33 51°22.849 3°0.057 18.8893 4.516895 33.506426 21.391298
2009-07-29 07:09:38 51°22.863 3°0.075 18.8883 4.516376 33.503383 21.356474
2009-07-29 07:09:42 51°22.875 3°0.089 18.8829 4.516168 33.502927 21.356474
2009-07-29 07:09:49 51°22.895 3°0.113 18.885 4.515649 33.499884 21.356474
2009-07-29 07:09:53 51°22.906 3°0.127 18.889 4.51513 33.496207 21.391298
2009-07-29 07:09:58 51°22.92 3°0.145 18.8868 4.51513 33.496207 21.391298
2009-07-29 07:10:04 51°22.937 3°0.166 18.8846 4.514403 33.491439 21.356474
2009-07-29 07:10:09 51°22.952 3°0.182 18.884 4.513884 33.488396 21.391298
2009-07-29 07:10:13 51°22.964 3°0.195 18.8853 4.513573 33.485809 21.391298
2009-07-29 07:10:18 51°22.978 3°0.211 18.8832 4.513054 33.483399 21.426122
2009-07-29 07:10:23 51°22.993 3°0.227 18.8836 4.512846 33.481675 21.426122
2009-07-29 07:10:28 51°23.009 3°0.241 18.8875 4.512846 33.481675 21.426122
2009-07-29 07:10:33 51°23.024 3°0.256 18.8869 4.512638 33.47995 21.356474
2009-07-29 07:10:38 51°23.04 3°0.271 18.8871 4.512431 33.47886 21.426122
2009-07-29 07:10:43 51°23.055 3°0.285 18.8865 4.512223 33.477769 21.391298
2009-07-29 07:10:48 51°23.07 3°0.3 18.8856 4.511912 33.475816 21.426122
2009-07-29 07:10:53 51°23.086 3°0.313 18.8822 4.511704 33.474725 21.391298
2009-07-29 07:10:58 51°23.102 3°0.328 18.8849 4.511704 33.474725 21.391298
2009-07-29 07:11:03 51°23.118 3°0.342 18.8851 4.511496 33.473 21.391298
2009-07-29 07:11:09 51°23.136 3°0.359 18.884 4.5116 33.472596 21.426122
2009-07-29 07:11:13 51°23.149 3°0.37 18.8853 4.511392 33.470871 21.426122
2009-07-29 07:11:18 51°23.165 3°0.384 18.8814 4.511185 33.469147 21.426122
2009-07-29 07:11:23 51°23.181 3°0.397 18.8804 4.510977 33.468056 21.426122
2009-07-29 07:11:29 51°23.2 3°0.414 18.8832 4.510977 33.468056 21.426122
2009-07-29 07:11:33 51°23.212 3°0.426 18.88 4.510666 33.466103 21.460946
2009-07-29 07:11:38 51°23.228 3°0.44 18.8759 4.510458 33.464378 21.426122
2009-07-29 07:11:43 51°23.244 3°0.454 18.8758 4.51025 33.462021 21.391298
2009-07-29 07:11:49 51°23.263 3°0.471 18.8786 4.509939 33.460068 21.460946
2009-07-29 07:11:53 51°23.275 3°0.482 18.8755 4.509627 33.458114 21.495771
2009-07-29 07:11:57 51°23.288 3°0.493 18.8756 4.509627 33.458114 21.495771
2009-07-29 07:12:03 51°23.307 3°0.51 18.8764 4.509316 33.455528 21.460946
2009-07-29 07:12:08 51°23.323 3°0.523 18.8754 4.508901 33.453346 21.460946
2009-07-29 07:12:13 51°23.339 3°0.536 18.8717 4.508485 33.451163 21.460946
2009-07-29 07:12:18 51°23.355 3°0.546 18.8738 4.50807 33.448981 21.460946
2009-07-29 07:12:23 51°23.372 3°0.554 18.8758 4.507759 33.447027 21.495771
2009-07-29 07:12:28 51°23.388 3°0.562 18.8716 4.507759 33.447027 21.495771
2009-07-29 07:12:33 51°23.405 3°0.569 18.8694 4.507343 33.444211 21.460946
2009-07-29 07:12:38 51°23.422 3°0.574 18.8685 4.507136 33.442487 21.495771
2009-07-29 07:12:43 51°23.439 3°0.58 18.8693 4.506721 33.440304 21.495771
2009-07-29 07:12:48 51°23.456 3°0.583 18.8704 4.506409 33.438984 21.460946
2009-07-29 07:12:53 51°23.474 3°0.587 18.875 4.506409 33.438351 21.565419
2009-07-29 07:12:58 51°23.491 3°0.589 18.8743 4.506409 33.438351 21.565419
2009-07-29 07:13:04 51°23.512 3°0.593 18.8745 4.506201 33.437892 21.495771
2009-07-29 07:13:08 51°23.526 3°0.595 18.8715 4.506098 33.437663 21.495771
2009-07-29 07:13:13 51°23.543 3°0.596 18.8736 4.506098 33.438929 21.495771
2009-07-29 07:13:18 51°23.56 3°0.598 18.8701 4.506098 33.438929 21.460946
2009-07-29 07:13:24 51°23.581 3°0.6 18.8727 4.506513 33.441745 21.460946
2009-07-29 07:13:29 51°23.599 3°0.601 18.8727 4.506513 33.441745 21.460946
2009-07-29 07:13:33 51°23.613 3°0.602 18.8726 4.506928 33.444561 21.495771
2009-07-29 07:13:38 51°23.63 3°0.604 18.8703 4.507343 33.447377 21.495771
2009-07-29 07:13:43 51°23.648 3°0.605 18.8732 4.507551 33.449102 21.460946
2009-07-29 07:13:49 51°23.669 3°0.605 18.8709 4.507655 33.450598 21.565419
2009-07-29 07:13:53 51°23.682 3°0.605 18.8705 4.507863 33.451689 21.530595
2009-07-29 07:13:58 51°23.7 3°0.602 18.873 4.507863 33.451689 21.530595
2009-07-29 07:14:03 51°23.717 3°0.602 18.8741 4.507966 33.453185 21.495771
2009-07-29 07:14:09 51°23.738 3°0.599 18.8703 4.507966 33.453185 21.495771
2009-07-29 07:14:13 51°23.751 3°0.597 18.8717 4.50807 33.454047 21.495771
2009-07-29 07:14:18 51°23.768 3°0.594 18.8712 4.507966 33.453185 21.460946
2009-07-29 07:14:23 51°23.785 3°0.592 18.8748 4.507655 33.450598 21.495771
2009-07-29 07:14:29 51°23.806 3°0.588 18.8744 4.507655 33.450598 21.495771
2009-07-29 07:14:33 51°23.819 3°0.586 18.8704 4.507447 33.448873 21.495771
2009-07-29 07:14:38 51°23.836 3°0.582 18.8711 4.507136 33.445653 21.530595
2009-07-29 07:14:43 51°23.853 3°0.578 18.8729 4.506513 33.441112 21.495771
2009-07-29 07:14:49 51°23.873 3°0.572 18.8714 4.506098 33.437663 21.495771
2009-07-29 07:14:53 51°23.887 3°0.568 18.8716 4.505682 33.434214 21.530595
2009-07-29 07:14:58 51°23.903 3°0.563 18.8696 4.505682 33.434214 21.530595
2009-07-29 07:15:03 51°23.92 3°0.558 18.8723 4.505267 33.430765 21.530595
2009-07-29 07:15:08 51°23.936 3°0.552 18.8703 4.50454 33.424729 21.600243
2009-07-29 07:15:13 51°23.953 3°0.546 18.8711 4.504021 33.420418 21.565419
2009-07-29 07:15:18 51°23.969 3°0.54 18.8738 4.503191 33.414153 21.495771
2009-07-29 07:15:24 51°23.989 3°0.533 18.8732 4.502464 33.408118 21.530595
2009-07-29 07:15:28 51°24.002 3°0.528 18.8761 4.502464 33.408118 21.530595
2009-07-29 07:15:33 51°24.019 3°0.522 18.8794 4.501737 33.402715 21.495771
2009-07-29 07:15:38 51°24.035 3°0.516 18.8768 4.501114 33.397542 21.565419
2009-07-29 07:15:44 51°24.055 3°0.507 18.877 4.500699 33.394093 21.495771
2009-07-29 07:15:49 51°24.071 3°0.501 18.879 4.500387 33.390242 21.530595
2009-07-29 07:15:53 51°24.084 3°0.497 18.8861 4.500076 33.387024 21.530595
2009-07-29 07:15:58 51°24.101 3°0.49 18.8839 4.500076 33.387024 21.530595
2009-07-29 07:16:04 51°24.12 3°0.482 18.8811 4.499557 33.382082 21.530595
2009-07-29 07:16:09 51°24.137 3°0.475 18.8835 4.499349 33.379094 21.460946
2009-07-29 07:16:13 51°24.15 3°0.469 18.8832 4.499038 33.376508 21.530595
2009-07-29 07:16:18 51°24.166 3°0.462 18.8811 4.498934 33.374382 21.495771
2009-07-29 07:16:23 51°24.183 3°0.455 18.8845 4.499141 33.374211 21.426122
2009-07-29 07:16:29 51°24.203 3°0.447 18.8854 4.499141 33.374211 21.426122
2009-07-29 07:16:33 51°24.216 3°0.442 18.8883 4.499349 33.374671 21.495771
2009-07-29 07:16:38 51°24.232 3°0.435 18.8882 4.499141 33.372316 21.460946
2009-07-29 07:16:43 51°24.249 3°0.429 18.8878 4.499038 33.370822 21.495771
2009-07-29 07:16:49 51°24.269 3°0.421 18.8927 4.496961 33.354218 21.426122
2009-07-29 07:16:53 51°24.282 3°0.416 18.8942 4.49748 33.357895 21.460946
2009-07-29 07:16:57 51°24.295 3°0.411 18.8937 4.49748 33.357895 21.460946
2009-07-29 07:17:03 51°24.316 3°0.406 18.9007 4.497273 33.355541 21.495771
2009-07-29 07:17:09 51°24.336 3°0.4 18.8911 4.497688 33.357725 21.391298
2009-07-29 07:17:13 51°24.35 3°0.397 18.8932 4.497688 33.356462 21.426122
2009-07-29 07:17:18 51°24.367 3°0.392 18.8939 4.498207 33.36014 21.426122
2009-07-29 07:17:23 51°24.384 3°0.388 18.9009 4.49883 33.363416 21.426122
2009-07-29 07:17:28 51°24.401 3°0.384 18.8938 4.49883 33.363416 21.426122
2009-07-29 07:17:33 51°24.418 3°0.382 18.8951 4.498207 33.356983 21.460946
2009-07-29 07:17:38 51°24.435 3°0.378 18.8983 4.499349 33.365199 21.460946
2009-07-29 07:17:44 51°24.456 3°0.376 18.8972 4.498622 33.359167 21.391298
2009-07-29 07:17:48 51°24.469 3°0.374 18.8948 4.499764 33.368645 21.460946
2009-07-29 07:17:53 51°24.487 3°0.372 18.8953 4.498207 33.354459 21.460946
2009-07-29 07:17:58 51°24.504 3°0.37 18.8946 4.498207 33.354459 21.460946
2009-07-29 07:18:04 51°24.525 3°0.368 18.8977 4.499453 33.364166 21.426122
2009-07-29 07:18:09 51°24.542 3°0.367 18.8956 4.498414 33.355551 21.426122
2009-07-29 07:18:13 51°24.556 3°0.365 18.8952 4.498518 33.355781 21.426122
2009-07-29 07:18:18 51°24.573 3°0.363 18.8968 4.498311 33.354058 21.426122
2009-07-29 07:18:24 51°24.594 3°0.36 18.8944 4.497999 33.352105 21.426122
2009-07-29 07:18:29 51°24.611 3°0.358 18.8972 4.497999 33.352105 21.426122
2009-07-29 07:18:33 51°24.625 3°0.357 18.8975 4.497272 33.346074 21.391298
2009-07-29 07:18:38 51°24.643 3°0.354 18.8994 4.497169 33.345213 21.426122
2009-07-29 07:18:42 51°24.657 3°0.353 18.9023 4.496753 33.341767 21.356474
2009-07-29 07:18:49 51°24.681 3°0.351 18.9026 4.496442 33.339182 21.391298
2009-07-29 07:18:53 51°24.695 3°0.351 18.8999 4.49613 33.336598 21.356474
2009-07-29 07:18:58 51°24.712 3°0.35 18.9001 4.49613 33.336598 21.356474
2009-07-29 07:19:03 51°24.73 3°0.349 18.9058 4.495923 33.334244 21.391298
2009-07-29 07:19:09 51°24.751 3°0.35 18.9039 4.495819 33.332752 21.356474
2009-07-29 07:19:13 51°24.765 3°0.35 18.907 4.495507 33.328907 21.391298
2009-07-29 07:19:18 51°24.782 3°0.35 18.9075 4.495507 33.328276 21.391298
2009-07-29 07:19:23 51°24.8 3°0.353 18.9073 4.495403 33.326785 21.356474
2009-07-29 07:19:28 51°24.817 3°0.356 18.9068 4.495403 33.326785 21.356474
2009-07-29 07:19:33 51°24.834 3°0.359 18.9045 4.495196 33.324432 21.356474
2009-07-29 07:19:38 51°24.852 3°0.362 18.9047 4.495403 33.325524 21.391298
2009-07-29 07:19:43 51°24.869 3°0.366 18.9094 4.495403 33.323633 21.356474
2009-07-29 07:19:49 51°24.89 3°0.373 18.9117 4.495092 33.319789 21.426122
2009-07-29 07:19:53 51°24.903 3°0.378 18.9079 4.495403 33.321742 21.356474
2009-07-29 07:19:58 51°24.92 3°0.385 18.9086 4.495403 33.321742 21.356474
2009-07-29 07:20:04 51°24.94 3°0.394 18.9077 4.495196 33.32002 21.356474
2009-07-29 07:20:08 51°24.954 3°0.401 18.9077 4.494884 33.318066 21.391298
2009-07-29 07:20:13 51°24.97 3°0.41 18.907 4.49478 33.317205 21.391298
2009-07-29 07:20:18 51°24.986 3°0.421 18.9151 4.49478 33.316575 21.391298
2009-07-29 07:20:24 51°25.005 3°0.435 18.9156 4.49478 33.315945 21.391298
2009-07-29 07:20:28 51°25.017 3°0.446 18.9121 4.49478 33.315945 21.391298
2009-07-29 07:20:33 51°25.032 3°0.46 18.9086 4.49478 33.315315 21.356474
2009-07-29 07:20:38 51°25.046 3°0.475 18.9074 4.49478 33.315315 21.356474
2009-07-29 07:20:44 51°25.063 3°0.494 18.9076 4.49478 33.315315 21.32165
2009-07-29 07:20:49 51°25.077 3°0.512 18.9088 4.494988 33.316407 21.356474
2009-07-29 07:20:53 51°25.087 3°0.525 18.911 4.495403 33.318591 21.356474
2009-07-29 07:20:58 51°25.1 3°0.544 18.9121 4.495403 33.318591 21.356474
2009-07-29 07:21:04 51°25.116 3°0.566 18.91 4.495611 33.319683 21.356474
2009-07-29 07:21:09 51°25.128 3°0.585 18.9142 4.495092 33.316008 21.391298
2009-07-29 07:21:13 51°25.138 3°0.601 18.9149 4.495196 33.316869 21.356474
2009-07-29 07:21:18 51°25.149 3°0.622 18.9149 4.4953 33.31836 21.356474
2009-07-29 07:21:23 51°25.16 3°0.643 18.9132 4.495819 33.322666 21.426122
2009-07-29 07:21:28 51°25.171 3°0.665 18.9132 4.495819 33.322666 21.426122
2009-07-29 07:21:33 51°25.182 3°0.687 18.9158 4.495819 33.322666 21.391298
2009-07-29 07:21:38 51°25.192 3°0.709 18.9131 4.496338 33.326341 21.32165
2009-07-29 07:21:43 51°25.202 3°0.731 18.9138 4.496961 33.329617 21.426122
2009-07-29 07:21:48 51°25.212 3°0.754 18.9164 4.497376 33.331801 21.391298
2009-07-29 07:21:53 51°25.221 3°0.777 18.9176 4.497376 33.331801 21.356474
2009-07-29 07:21:58 51°25.23 3°0.801 18.9216 4.497376 33.331801 21.356474
2009-07-29 07:22:04 51°25.239 3°0.831 18.9233 4.497791 33.335246 21.356474
2009-07-29 07:22:08 51°25.245 3°0.85 18.9182 4.497064 33.329218 21.391298
2009-07-29 07:22:13 51°25.252 3°0.876 18.9234 4.497999 33.336968 21.391298
2009-07-29 07:22:18 51°25.259 3°0.901 18.9175 4.498103 33.337829 21.426122
2009-07-29 07:22:24 51°25.266 3°0.931 18.9183 4.498414 33.339152 21.426122
2009-07-29 07:22:29 51°25.273 3°0.957 18.9167 4.498414 33.339152 21.426122
2009-07-29 07:22:33 51°25.277 3°0.977 18.9174 4.498622 33.339613 21.460946
2009-07-29 07:22:38 51°25.283 3°1.003 18.9209 4.498829 33.339444 21.426122
2009-07-29 07:22:43 51°25.289 3°1.029 18.9159 4.498933 33.340305 21.426122
2009-07-29 07:22:49 51°25.293 3°1.06 18.9183 4.498829 33.339444 21.460946
2009-07-29 07:22:53 51°25.297 3°1.081 18.9182 4.498829 33.339444 21.426122
2009-07-29 07:22:58 51°25.3 3°1.107 18.9182 4.498829 33.339444 21.426122
2009-07-29 07:23:03 51°25.305 3°1.134 18.9193 4.498829 33.340075 21.495771
2009-07-29 07:23:09 51°25.309 3°1.165 18.9189 4.498726 33.339844 21.391298
2009-07-29 07:23:13 51°25.311 3°1.187 18.9201 4.49831 33.335769 21.495771
2009-07-29 07:23:17 51°25.315 3°1.208 18.9215 4.498206 33.334908 21.530595
2009-07-29 07:23:23 51°25.318 3°1.239 18.9217 4.498933 33.341566 21.495771
2009-07-29 07:23:29 51°25.322 3°1.271 18.9242 4.498933 33.341566 21.495771
2009-07-29 07:23:33 51°25.325 3°1.293 18.9229 4.499141 33.343288 21.495771
2009-07-29 07:23:37 51°25.327 3°1.314 18.9226 4.499348 33.34438 21.495771
2009-07-29 07:23:43 51°25.331 3°1.346 18.9236 4.499556 33.346102 21.530595
2009-07-29 07:23:48 51°25.334 3°1.373 18.9255 4.499868 33.348055 21.565419
2009-07-29 07:23:53 51°25.338 3°1.399 18.9244 4.499971 33.348285 21.565419
2009-07-29 07:23:58 51°25.341 3°1.426 18.9234 4.499971 33.348285 21.565419
2009-07-29 07:24:03 51°25.344 3°1.453 18.9246 4.500179 33.349377 21.530595
2009-07-29 07:24:08 51°25.347 3°1.48 18.9288 4.500387 33.350469 21.565419
2009-07-29 07:24:13 51°25.351 3°1.507 18.9243 4.50049 33.35133 21.530595
2009-07-29 07:24:18 51°25.354 3°1.533 18.9277 4.500594 33.35156 21.600243
2009-07-29 07:24:24 51°25.358 3°1.566 18.9258 4.500698 33.351791 21.635067
2009-07-29 07:24:28 51°25.361 3°1.587 18.9257 4.500698 33.351791 21.635067
2009-07-29 07:24:33 51°25.364 3°1.614 18.9271 4.500802 33.352652 21.600243
2009-07-29 07:24:38 51°25.368 3°1.641 18.9272 4.500802 33.352652 21.600243
2009-07-29 07:24:44 51°25.371 3°1.674 18.9268 4.500906 33.352252 21.635067
2009-07-29 07:24:49 51°25.375 3°1.701 18.9273 4.500906 33.352252 21.635067
2009-07-29 07:24:53 51°25.377 3°1.722 18.9319 4.500802 33.35076 21.635067
2009-07-29 07:24:58 51°25.382 3°1.749 18.9306 4.500802 33.35076 21.635067
2009-07-29 07:25:04 51°25.386 3°1.782 18.9317 4.500594 33.349038 21.635067
2009-07-29 07:25:09 51°25.391 3°1.808 18.9285 4.50049 33.348177 21.635067
2009-07-29 07:25:13 51°25.394 3°1.83 18.9297 4.500387 33.347316 21.635067
2009-07-29 07:25:18 51°25.399 3°1.856 18.9304 4.500179 33.345595 21.669891
2009-07-29 07:25:24 51°25.405 3°1.888 18.9298 4.500075 33.343473 21.600243
2009-07-29 07:25:29 51°25.41 3°1.915 18.9299 4.500075 33.343473 21.600243
2009-07-29 07:25:33 51°25.414 3°1.936 18.9302 4.500075 33.342843 21.669891
2009-07-29 07:25:38 51°25.418 3°1.962 18.93 4.499867 33.340491 21.635067
2009-07-29 07:25:43 51°25.424 3°1.989 18.9308 4.499452 33.337677 21.669891
2009-07-29 07:25:49 51°25.429 3°2.021 18.9328 4.499244 33.335326 21.669891
2009-07-29 07:25:53 51°25.434 3°2.042 18.9318 4.498933 33.332743 21.669891
2009-07-29 07:25:58 51°25.439 3°2.068 18.9346 4.498933 33.332743 21.669891
2009-07-29 07:26:03 51°25.443 3°2.095 18.935 4.498622 33.330161 21.704715
2009-07-29 07:26:09 51°25.45 3°2.127 18.9322 4.498414 33.328439 21.704715
2009-07-29 07:26:13 51°25.454 3°2.148 18.9339 4.49831 33.326948 21.739539
2009-07-29 07:26:18 51°25.459 3°2.175 18.9353 4.498206 33.324828 21.704715
2009-07-29 07:26:23 51°25.464 3°2.202 18.9324 4.498206 33.324198 21.669891
2009-07-29 07:26:29 51°25.47 3°2.233 18.9353 4.498206 33.324198 21.669891
2009-07-29 07:26:33 51°25.473 3°2.255 18.9339 4.497999 33.322476 21.704715
2009-07-29 07:26:38 51°25.479 3°2.282 18.9331 4.497895 33.320986 21.739539
2009-07-29 07:26:43 51°25.483 3°2.308 18.9321 4.497583 33.319033 21.669891
2009-07-29 07:26:48 51°25.488 3°2.335 18.9342 4.497479 33.317543 21.704715
2009-07-29 07:26:53 51°25.493 3°2.362 18.9368 4.497168 33.314961 21.774363
2009-07-29 07:26:58 51°25.498 3°2.388 18.9356 4.497168 33.314961 21.774363
2009-07-29 07:27:03 51°25.503 3°2.415 18.9378 4.497064 33.313471 21.774363
2009-07-29 07:27:08 51°25.508 3°2.442 18.9372 4.496753 33.310889 21.739539
2009-07-29 07:27:13 51°25.512 3°2.469 18.9362 4.496441 33.308936 21.739539
2009-07-29 07:27:18 51°25.517 3°2.496 18.9341 4.496234 33.307215 21.774363
2009-07-29 07:27:24 51°25.523 3°2.528 18.9375 4.49613 33.305725 21.669891
2009-07-29 07:27:28 51°25.527 3°2.55 18.9404 4.49613 33.305725 21.669891
2009-07-29 07:27:33 51°25.531 3°2.577 18.9414 4.496026 33.304235 21.739539
2009-07-29 07:27:38 51°25.536 3°2.604 18.9406 4.496026 33.303605 21.739539
2009-07-29 07:27:42 51°25.539 3°2.625 18.9454 4.495714 33.301023 21.774363
2009-07-29 07:27:49 51°25.545 3°2.663 18.9411 4.495507 33.299302 21.774363
2009-07-29 07:27:53 51°25.548 3°2.685 18.9427 4.495299 33.297581 21.809187
2009-07-29 07:27:58 51°25.551 3°2.712 18.9434 4.495299 33.297581 21.809187
2009-07-29 07:28:04 51°25.555 3°2.744 18.9397 4.495195 33.295462 21.774363
2009-07-29 07:28:09 51°25.558 3°2.772 18.9423 4.495091 33.293343 21.844011
2009-07-29 07:28:13 51°25.561 3°2.794 18.9411 4.494676 33.288643 21.878835
2009-07-29 07:28:18 51°25.564 3°2.821 18.9429 4.494365 33.285433 21.844011
2009-07-29 07:28:23 51°25.567 3°2.849 18.942 4.493949 33.281362 21.809187
2009-07-29 07:28:28 51°25.569 3°2.876 18.9412 4.493949 33.281362 21.809187
2009-07-29 07:28:33 51°25.572 3°2.903 18.9442 4.493638 33.278781 21.809187
2009-07-29 07:28:38 51°25.575 3°2.93 18.9458 4.493326 33.2762 21.809187
2009-07-29 07:28:43 51°25.578 3°2.958 18.9437 4.493015 33.273619 21.844011
2009-07-29 07:28:49 51°25.581 3°2.991 18.9431 4.492704 33.271038 21.809187
2009-07-29 07:28:53 51°25.584 3°3.012 18.9417 4.492392 33.268457 21.844011